<?xml version='1.0' encoding='UTF-8'?>
<gpx version="1.1" creator="https://www.komoot.de" xmlns="http://www.topografix.com/GPX/1/1" xmlns:xsi="http://www.w3.org/2001/XMLSchema-instance" xsi:schemaLocation="http://www.topografix.com/GPX/1/1 http://www.topografix.com/GPX/1/1/gpx.xsd">
  <metadata>
    <name>RTCN Gravelrit voorjaar 2026</name>
    <author>
      <link href="https://www.komoot.de">
        <text>komoot</text>
        <type>text/html</type>
      </link>
    </author>
  </metadata>
  <trk>
    <name>RTCN Gravelrit voorjaar 2026</name>
    <trkseg>
      <trkpt lat="52.218607" lon="5.874834">
        <ele>86.786992</ele>
        <time>2026-04-13T20:34:23.325Z</time>
      </trkpt>
      <trkpt lat="52.218631" lon="5.875261">
        <ele>86.786992</ele>
        <time>2026-04-13T20:34:27.652Z</time>
      </trkpt>
      <trkpt lat="52.218632" lon="5.876218">
        <ele>86.786992</ele>
        <time>2026-04-13T20:34:37.221Z</time>
      </trkpt>
      <trkpt lat="52.218682" lon="5.877023">
        <ele>86.740691</ele>
        <time>2026-04-13T20:34:45.439Z</time>
      </trkpt>
      <trkpt lat="52.218811" lon="5.877760">
        <ele>86.691875</ele>
        <time>2026-04-13T20:34:53.270Z</time>
      </trkpt>
      <trkpt lat="52.218895" lon="5.878123">
        <ele>86.667162</ele>
        <time>2026-04-13T20:34:57.272Z</time>
      </trkpt>
      <trkpt lat="52.218936" lon="5.878278">
        <ele>86.656410</ele>
        <time>2026-04-13T20:34:59.019Z</time>
      </trkpt>
      <trkpt lat="52.218949" lon="5.878326">
        <ele>86.653067</ele>
        <time>2026-04-13T20:34:59.563Z</time>
      </trkpt>
      <trkpt lat="52.219022" lon="5.878338">
        <ele>86.645440</ele>
        <time>2026-04-13T20:35:00.816Z</time>
      </trkpt>
      <trkpt lat="52.219236" lon="5.878984">
        <ele>86.598521</ele>
        <time>2026-04-13T20:35:08.619Z</time>
      </trkpt>
      <trkpt lat="52.219304" lon="5.879993">
        <ele>86.526757</ele>
        <time>2026-04-13T20:35:19.462Z</time>
      </trkpt>
      <trkpt lat="52.219433" lon="5.880656">
        <ele>86.477578</ele>
        <time>2026-04-13T20:35:26.651Z</time>
      </trkpt>
      <trkpt lat="52.219790" lon="5.880510">
        <ele>86.435108</ele>
        <time>2026-04-13T20:35:32.830Z</time>
      </trkpt>
      <trkpt lat="52.219937" lon="5.881513">
        <ele>86.192654</ele>
        <time>2026-04-13T20:35:44.470Z</time>
      </trkpt>
      <trkpt lat="52.219996" lon="5.881711">
        <ele>86.089867</ele>
        <time>2026-04-13T20:35:46.900Z</time>
      </trkpt>
      <trkpt lat="52.220202" lon="5.882178">
        <ele>85.821221</ele>
        <time>2026-04-13T20:35:53.201Z</time>
      </trkpt>
      <trkpt lat="52.220920" lon="5.884105">
        <ele>84.452787</ele>
        <time>2026-04-13T20:36:16.690Z</time>
      </trkpt>
      <trkpt lat="52.221947" lon="5.886485">
        <ele>81.615018</ele>
        <time>2026-04-13T20:36:45.488Z</time>
      </trkpt>
      <trkpt lat="52.222272" lon="5.887002">
        <ele>81.142625</ele>
        <time>2026-04-13T20:36:52.950Z</time>
      </trkpt>
      <trkpt lat="52.222530" lon="5.887739">
        <ele>80.601317</ele>
        <time>2026-04-13T20:37:02.086Z</time>
      </trkpt>
      <trkpt lat="52.222716" lon="5.888386">
        <ele>80.145555</ele>
        <time>2026-04-13T20:37:10.579Z</time>
      </trkpt>
      <trkpt lat="52.222853" lon="5.889009">
        <ele>80.102710</ele>
        <time>2026-04-13T20:37:18.932Z</time>
      </trkpt>
      <trkpt lat="52.222911" lon="5.889275">
        <ele>80.117921</ele>
        <time>2026-04-13T20:37:22.554Z</time>
      </trkpt>
      <trkpt lat="52.222939" lon="5.889448">
        <ele>80.127560</ele>
        <time>2026-04-13T20:37:24.907Z</time>
      </trkpt>
      <trkpt lat="52.223104" lon="5.890029">
        <ele>80.162060</ele>
        <time>2026-04-13T20:37:33.102Z</time>
      </trkpt>
      <trkpt lat="52.223435" lon="5.890717">
        <ele>80.209188</ele>
        <time>2026-04-13T20:37:43.979Z</time>
      </trkpt>
      <trkpt lat="52.223598" lon="5.891439">
        <ele>80.344740</ele>
        <time>2026-04-13T20:37:53.106Z</time>
      </trkpt>
      <trkpt lat="52.223841" lon="5.892679">
        <ele>80.756848</ele>
        <time>2026-04-13T20:38:10.012Z</time>
      </trkpt>
      <trkpt lat="52.223938" lon="5.893996">
        <ele>81.162517</ele>
        <time>2026-04-13T20:38:29.718Z</time>
      </trkpt>
      <trkpt lat="52.223950" lon="5.894486">
        <ele>81.179552</ele>
        <time>2026-04-13T20:38:37.097Z</time>
      </trkpt>
      <trkpt lat="52.223861" lon="5.894915">
        <ele>81.195285</ele>
        <time>2026-04-13T20:38:43.750Z</time>
      </trkpt>
      <trkpt lat="52.223547" lon="5.895929">
        <ele>81.234753</ele>
        <time>2026-04-13T20:38:58.217Z</time>
      </trkpt>
      <trkpt lat="52.223464" lon="5.896289">
        <ele>81.248115</ele>
        <time>2026-04-13T20:39:02.596Z</time>
      </trkpt>
      <trkpt lat="52.223373" lon="5.896752">
        <ele>81.211450</ele>
        <time>2026-04-13T20:39:07.878Z</time>
      </trkpt>
      <trkpt lat="52.223185" lon="5.898263">
        <ele>79.988614</ele>
        <time>2026-04-13T20:39:23.163Z</time>
      </trkpt>
      <trkpt lat="52.223180" lon="5.898722">
        <ele>79.624524</ele>
        <time>2026-04-13T20:39:27.731Z</time>
      </trkpt>
      <trkpt lat="52.223375" lon="5.899516">
        <ele>78.946084</ele>
        <time>2026-04-13T20:39:36.843Z</time>
      </trkpt>
      <trkpt lat="52.223339" lon="5.899720">
        <ele>79.025000</ele>
        <time>2026-04-13T20:39:39.284Z</time>
      </trkpt>
      <trkpt lat="52.223131" lon="5.900970">
        <ele>79.622001</ele>
        <time>2026-04-13T20:39:57.431Z</time>
      </trkpt>
      <trkpt lat="52.222948" lon="5.902438">
        <ele>80.301746</ele>
        <time>2026-04-13T20:40:22.253Z</time>
      </trkpt>
      <trkpt lat="52.222818" lon="5.903419">
        <ele>80.566619</ele>
        <time>2026-04-13T20:40:36.716Z</time>
      </trkpt>
      <trkpt lat="52.224640" lon="5.903201">
        <ele>80.692426</ele>
        <time>2026-04-13T20:41:35.255Z</time>
      </trkpt>
      <trkpt lat="52.224867" lon="5.903132">
        <ele>80.566199</ele>
        <time>2026-04-13T20:41:42.357Z</time>
      </trkpt>
      <trkpt lat="52.225379" lon="5.902727">
        <ele>80.255180</ele>
        <time>2026-04-13T20:41:59.209Z</time>
      </trkpt>
      <trkpt lat="52.225575" lon="5.902673">
        <ele>80.146518</ele>
        <time>2026-04-13T20:42:04.856Z</time>
      </trkpt>
      <trkpt lat="52.225782" lon="5.902700">
        <ele>80.024873</ele>
        <time>2026-04-13T20:42:10.756Z</time>
      </trkpt>
      <trkpt lat="52.226078" lon="5.902820">
        <ele>79.828672</ele>
        <time>2026-04-13T20:42:19.405Z</time>
      </trkpt>
      <trkpt lat="52.226371" lon="5.902825">
        <ele>79.640175</ele>
        <time>2026-04-13T20:42:27.741Z</time>
      </trkpt>
      <trkpt lat="52.226475" lon="5.902878">
        <ele>79.570088</ele>
        <time>2026-04-13T20:42:30.848Z</time>
      </trkpt>
      <trkpt lat="52.226514" lon="5.902787">
        <ele>79.526324</ele>
        <time>2026-04-13T20:42:32.800Z</time>
      </trkpt>
      <trkpt lat="52.227285" lon="5.901774">
        <ele>78.998120</ele>
        <time>2026-04-13T20:43:03.151Z</time>
      </trkpt>
      <trkpt lat="52.227362" lon="5.901509">
        <ele>79.271506</ele>
        <time>2026-04-13T20:43:09.645Z</time>
      </trkpt>
      <trkpt lat="52.227204" lon="5.899024">
        <ele>81.600190</ele>
        <time>2026-04-13T20:44:11.535Z</time>
      </trkpt>
      <trkpt lat="52.227143" lon="5.897699">
        <ele>82.824833</ele>
        <time>2026-04-13T20:44:44.096Z</time>
      </trkpt>
      <trkpt lat="52.227086" lon="5.897385">
        <ele>83.126506</ele>
        <time>2026-04-13T20:44:51.750Z</time>
      </trkpt>
      <trkpt lat="52.226995" lon="5.897067">
        <ele>83.449820</ele>
        <time>2026-04-13T20:44:59.834Z</time>
      </trkpt>
      <trkpt lat="52.226976" lon="5.896823">
        <ele>83.676388</ele>
        <time>2026-04-13T20:45:05.452Z</time>
      </trkpt>
      <trkpt lat="52.226926" lon="5.896619">
        <ele>83.878787</ele>
        <time>2026-04-13T20:45:10.431Z</time>
      </trkpt>
      <trkpt lat="52.227355" lon="5.896130">
        <ele>84.615216</ele>
        <time>2026-04-13T20:45:23.238Z</time>
      </trkpt>
      <trkpt lat="52.228585" lon="5.895050">
        <ele>86.364832</ele>
        <time>2026-04-13T20:45:57.812Z</time>
      </trkpt>
      <trkpt lat="52.228623" lon="5.894955">
        <ele>86.451896</ele>
        <time>2026-04-13T20:45:59.721Z</time>
      </trkpt>
      <trkpt lat="52.228600" lon="5.894325">
        <ele>87.254055</ele>
        <time>2026-04-13T20:46:10.605Z</time>
      </trkpt>
      <trkpt lat="52.228625" lon="5.894002">
        <ele>87.752684</ele>
        <time>2026-04-13T20:46:16.458Z</time>
      </trkpt>
      <trkpt lat="52.228276" lon="5.892369">
        <ele>90.401606</ele>
        <time>2026-04-13T20:46:50.773Z</time>
      </trkpt>
      <trkpt lat="52.228182" lon="5.892089">
        <ele>90.890636</ele>
        <time>2026-04-13T20:46:57.525Z</time>
      </trkpt>
      <trkpt lat="52.227983" lon="5.891093">
        <ele>91.560415</ele>
        <time>2026-04-13T20:47:18.455Z</time>
      </trkpt>
      <trkpt lat="52.227758" lon="5.890694">
        <ele>91.828710</ele>
        <time>2026-04-13T20:47:28.435Z</time>
      </trkpt>
      <trkpt lat="52.227262" lon="5.889323">
        <ele>92.316926</ele>
        <time>2026-04-13T20:47:47.043Z</time>
      </trkpt>
      <trkpt lat="52.227198" lon="5.888681">
        <ele>90.684893</ele>
        <time>2026-04-13T20:47:52.964Z</time>
      </trkpt>
      <trkpt lat="52.226858" lon="5.888195">
        <ele>88.833757</ele>
        <time>2026-04-13T20:47:59.324Z</time>
      </trkpt>
      <trkpt lat="52.226644" lon="5.887958">
        <ele>87.774486</ele>
        <time>2026-04-13T20:48:02.841Z</time>
      </trkpt>
      <trkpt lat="52.225859" lon="5.887350">
        <ele>84.811403</ele>
        <time>2026-04-13T20:48:14.769Z</time>
      </trkpt>
      <trkpt lat="52.225726" lon="5.887289">
        <ele>84.588288</ele>
        <time>2026-04-13T20:48:16.799Z</time>
      </trkpt>
      <trkpt lat="52.225588" lon="5.887211">
        <ele>84.352433</ele>
        <time>2026-04-13T20:48:18.996Z</time>
      </trkpt>
      <trkpt lat="52.225402" lon="5.887019">
        <ele>83.997021</ele>
        <time>2026-04-13T20:48:22.432Z</time>
      </trkpt>
      <trkpt lat="52.225227" lon="5.886643">
        <ele>83.529851</ele>
        <time>2026-04-13T20:48:27.200Z</time>
      </trkpt>
      <trkpt lat="52.227284" lon="5.885980">
        <ele>83.828155</ele>
        <time>2026-04-13T20:49:15.001Z</time>
      </trkpt>
      <trkpt lat="52.228225" lon="5.885653">
        <ele>85.467777</ele>
        <time>2026-04-13T20:49:42.338Z</time>
      </trkpt>
      <trkpt lat="52.228807" lon="5.885098">
        <ele>86.967608</ele>
        <time>2026-04-13T20:50:03.238Z</time>
      </trkpt>
      <trkpt lat="52.229557" lon="5.884314">
        <ele>88.703637</ele>
        <time>2026-04-13T20:50:29.331Z</time>
      </trkpt>
      <trkpt lat="52.230594" lon="5.881852">
        <ele>90.960732</ele>
        <time>2026-04-13T20:51:12.822Z</time>
      </trkpt>
      <trkpt lat="52.231252" lon="5.880301">
        <ele>92.075214</ele>
        <time>2026-04-13T20:51:40.571Z</time>
      </trkpt>
      <trkpt lat="52.231689" lon="5.880853">
        <ele>92.718864</ele>
        <time>2026-04-13T20:51:54.179Z</time>
      </trkpt>
      <trkpt lat="52.231856" lon="5.880973">
        <ele>92.994866</ele>
        <time>2026-04-13T20:51:58.685Z</time>
      </trkpt>
      <trkpt lat="52.232327" lon="5.881057">
        <ele>93.711583</ele>
        <time>2026-04-13T20:52:10.791Z</time>
      </trkpt>
      <trkpt lat="52.232547" lon="5.881137">
        <ele>94.052530</ele>
        <time>2026-04-13T20:52:16.856Z</time>
      </trkpt>
      <trkpt lat="52.232815" lon="5.881236">
        <ele>94.468178</ele>
        <time>2026-04-13T20:52:24.508Z</time>
      </trkpt>
      <trkpt lat="52.232870" lon="5.881265">
        <ele>94.555607</ele>
        <time>2026-04-13T20:52:26.489Z</time>
      </trkpt>
      <trkpt lat="52.233034" lon="5.881154">
        <ele>94.824159</ele>
        <time>2026-04-13T20:52:31.006Z</time>
      </trkpt>
      <trkpt lat="52.233661" lon="5.880414">
        <ele>96.251548</ele>
        <time>2026-04-13T20:52:52.805Z</time>
      </trkpt>
      <trkpt lat="52.233819" lon="5.880169">
        <ele>96.679641</ele>
        <time>2026-04-13T20:52:59.167Z</time>
      </trkpt>
      <trkpt lat="52.233882" lon="5.880076">
        <ele>96.846501</ele>
        <time>2026-04-13T20:53:01.673Z</time>
      </trkpt>
      <trkpt lat="52.233902" lon="5.880046">
        <ele>96.899858</ele>
        <time>2026-04-13T20:53:02.468Z</time>
      </trkpt>
      <trkpt lat="52.233922" lon="5.880016">
        <ele>96.953215</ele>
        <time>2026-04-13T20:53:03.267Z</time>
      </trkpt>
      <trkpt lat="52.234127" lon="5.879725">
        <ele>97.486894</ele>
        <time>2026-04-13T20:53:11.445Z</time>
      </trkpt>
      <trkpt lat="52.234417" lon="5.879430">
        <ele>98.158171</ele>
        <time>2026-04-13T20:53:21.385Z</time>
      </trkpt>
      <trkpt lat="52.235177" lon="5.879142">
        <ele>99.217389</ele>
        <time>2026-04-13T20:53:42.699Z</time>
      </trkpt>
      <trkpt lat="52.235814" lon="5.878929">
        <ele>99.903591</ele>
        <time>2026-04-13T20:53:58.992Z</time>
      </trkpt>
      <trkpt lat="52.236389" lon="5.878602">
        <ele>100.546160</ele>
        <time>2026-04-13T20:54:12.307Z</time>
      </trkpt>
      <trkpt lat="52.236946" lon="5.878192">
        <ele>100.083099</ele>
        <time>2026-04-13T20:54:24.577Z</time>
      </trkpt>
      <trkpt lat="52.237334" lon="5.877968">
        <ele>99.747620</ele>
        <time>2026-04-13T20:54:32.278Z</time>
      </trkpt>
      <trkpt lat="52.237457" lon="5.878124">
        <ele>99.620661</ele>
        <time>2026-04-13T20:54:34.964Z</time>
      </trkpt>
      <trkpt lat="52.237526" lon="5.878278">
        <ele>99.525403</ele>
        <time>2026-04-13T20:54:36.933Z</time>
      </trkpt>
      <trkpt lat="52.237572" lon="5.878797">
        <ele>99.263612</ele>
        <time>2026-04-13T20:54:42.113Z</time>
      </trkpt>
      <trkpt lat="52.237696" lon="5.879255">
        <ele>98.724989</ele>
        <time>2026-04-13T20:54:46.817Z</time>
      </trkpt>
      <trkpt lat="52.237779" lon="5.879767">
        <ele>97.573714</ele>
        <time>2026-04-13T20:54:51.602Z</time>
      </trkpt>
      <trkpt lat="52.237917" lon="5.880381">
        <ele>96.152006</ele>
        <time>2026-04-13T20:54:57.272Z</time>
      </trkpt>
      <trkpt lat="52.238056" lon="5.880783">
        <ele>95.148507</ele>
        <time>2026-04-13T20:55:01.165Z</time>
      </trkpt>
      <trkpt lat="52.238410" lon="5.881652">
        <ele>92.879808</ele>
        <time>2026-04-13T20:55:09.846Z</time>
      </trkpt>
      <trkpt lat="52.239342" lon="5.883013">
        <ele>88.940229</ele>
        <time>2026-04-13T20:55:27.191Z</time>
      </trkpt>
      <trkpt lat="52.239689" lon="5.883688">
        <ele>87.248003</ele>
        <time>2026-04-13T20:55:35.395Z</time>
      </trkpt>
      <trkpt lat="52.240019" lon="5.884588">
        <ele>87.682070</ele>
        <time>2026-04-13T20:55:47.226Z</time>
      </trkpt>
      <trkpt lat="52.240076" lon="5.884375">
        <ele>87.829074</ele>
        <time>2026-04-13T20:55:50.601Z</time>
      </trkpt>
      <trkpt lat="52.240170" lon="5.884188">
        <ele>87.982076</ele>
        <time>2026-04-13T20:55:54.382Z</time>
      </trkpt>
      <trkpt lat="52.240365" lon="5.883944">
        <ele>88.235782</ele>
        <time>2026-04-13T20:56:01.232Z</time>
      </trkpt>
      <trkpt lat="52.240625" lon="5.883721">
        <ele>88.539077</ele>
        <time>2026-04-13T20:56:10.042Z</time>
      </trkpt>
      <trkpt lat="52.240963" lon="5.883559">
        <ele>88.902869</ele>
        <time>2026-04-13T20:56:21.129Z</time>
      </trkpt>
      <trkpt lat="52.241300" lon="5.883446">
        <ele>89.252856</ele>
        <time>2026-04-13T20:56:31.407Z</time>
      </trkpt>
      <trkpt lat="52.241513" lon="5.883523">
        <ele>89.474477</ele>
        <time>2026-04-13T20:56:37.474Z</time>
      </trkpt>
      <trkpt lat="52.241703" lon="5.883694">
        <ele>89.694865</ele>
        <time>2026-04-13T20:56:43.118Z</time>
      </trkpt>
      <trkpt lat="52.241869" lon="5.883850">
        <ele>89.889429</ele>
        <time>2026-04-13T20:56:47.748Z</time>
      </trkpt>
      <trkpt lat="52.241944" lon="5.883855">
        <ele>89.965683</ele>
        <time>2026-04-13T20:56:49.473Z</time>
      </trkpt>
      <trkpt lat="52.242648" lon="5.883520">
        <ele>90.710606</ele>
        <time>2026-04-13T20:57:03.997Z</time>
      </trkpt>
      <trkpt lat="52.243193" lon="5.882777">
        <ele>90.418916</ele>
        <time>2026-04-13T20:57:16.719Z</time>
      </trkpt>
      <trkpt lat="52.243886" lon="5.881115">
        <ele>89.691968</ele>
        <time>2026-04-13T20:57:38.664Z</time>
      </trkpt>
      <trkpt lat="52.244057" lon="5.879563">
        <ele>88.252452</ele>
        <time>2026-04-13T20:57:54.624Z</time>
      </trkpt>
      <trkpt lat="52.244299" lon="5.879713">
        <ele>87.866551</ele>
        <time>2026-04-13T20:57:58.657Z</time>
      </trkpt>
      <trkpt lat="52.244785" lon="5.880424">
        <ele>86.911199</ele>
        <time>2026-04-13T20:58:08.580Z</time>
      </trkpt>
      <trkpt lat="52.245314" lon="5.880610">
        <ele>86.159233</ele>
        <time>2026-04-13T20:58:16.916Z</time>
      </trkpt>
      <trkpt lat="52.245566" lon="5.880774">
        <ele>85.782265</ele>
        <time>2026-04-13T20:58:21.260Z</time>
      </trkpt>
      <trkpt lat="52.245305" lon="5.882261">
        <ele>84.384752</ele>
        <time>2026-04-13T20:58:37.870Z</time>
      </trkpt>
      <trkpt lat="52.244959" lon="5.883483">
        <ele>82.734099</ele>
        <time>2026-04-13T20:58:51.944Z</time>
      </trkpt>
      <trkpt lat="52.244917" lon="5.883763">
        <ele>82.380656</ele>
        <time>2026-04-13T20:58:54.712Z</time>
      </trkpt>
      <trkpt lat="52.245043" lon="5.886304">
        <ele>77.231525</ele>
        <time>2026-04-13T20:59:16.638Z</time>
      </trkpt>
      <trkpt lat="52.244997" lon="5.888875">
        <ele>70.089585</ele>
        <time>2026-04-13T20:59:37.723Z</time>
      </trkpt>
      <trkpt lat="52.245085" lon="5.891097">
        <ele>63.701671</ele>
        <time>2026-04-13T20:59:55.899Z</time>
      </trkpt>
      <trkpt lat="52.245235" lon="5.891317">
        <ele>62.965437</ele>
        <time>2026-04-13T20:59:58.640Z</time>
      </trkpt>
      <trkpt lat="52.245405" lon="5.891508">
        <ele>62.211913</ele>
        <time>2026-04-13T21:00:01.490Z</time>
      </trkpt>
      <trkpt lat="52.245668" lon="5.891935">
        <ele>60.857664</ele>
        <time>2026-04-13T21:00:06.698Z</time>
      </trkpt>
      <trkpt lat="52.245727" lon="5.892138">
        <ele>60.355225</ele>
        <time>2026-04-13T21:00:08.673Z</time>
      </trkpt>
      <trkpt lat="52.245938" lon="5.892338">
        <ele>59.464321</ele>
        <time>2026-04-13T21:00:12.209Z</time>
      </trkpt>
      <trkpt lat="52.246166" lon="5.892727">
        <ele>58.260257</ele>
        <time>2026-04-13T21:00:17.093Z</time>
      </trkpt>
      <trkpt lat="52.246720" lon="5.893525">
        <ele>56.184266</ele>
        <time>2026-04-13T21:00:28.181Z</time>
      </trkpt>
      <trkpt lat="52.246749" lon="5.894745">
        <ele>54.151149</ele>
        <time>2026-04-13T21:00:39.199Z</time>
      </trkpt>
      <trkpt lat="52.246965" lon="5.895529">
        <ele>52.738604</ele>
        <time>2026-04-13T21:00:46.836Z</time>
      </trkpt>
      <trkpt lat="52.245430" lon="5.895720">
        <ele>48.758382</ele>
        <time>2026-04-13T21:01:09.880Z</time>
      </trkpt>
      <trkpt lat="52.245084" lon="5.896390">
        <ele>47.212115</ele>
        <time>2026-04-13T21:01:17.907Z</time>
      </trkpt>
      <trkpt lat="52.245050" lon="5.896579">
        <ele>46.854637</ele>
        <time>2026-04-13T21:01:19.679Z</time>
      </trkpt>
      <trkpt lat="52.245050" lon="5.896724">
        <ele>46.591504</ele>
        <time>2026-04-13T21:01:20.974Z</time>
      </trkpt>
      <trkpt lat="52.245105" lon="5.897218">
        <ele>45.680336</ele>
        <time>2026-04-13T21:01:25.449Z</time>
      </trkpt>
      <trkpt lat="52.245206" lon="5.898737">
        <ele>42.968945</ele>
        <time>2026-04-13T21:01:38.787Z</time>
      </trkpt>
      <trkpt lat="52.245429" lon="5.900048">
        <ele>41.197479</ele>
        <time>2026-04-13T21:01:51.000Z</time>
      </trkpt>
      <trkpt lat="52.245796" lon="5.901180">
        <ele>39.529854</ele>
        <time>2026-04-13T21:02:03.683Z</time>
      </trkpt>
      <trkpt lat="52.245995" lon="5.901918">
        <ele>39.107624</ele>
        <time>2026-04-13T21:02:12.374Z</time>
      </trkpt>
      <trkpt lat="52.246228" lon="5.903075">
        <ele>38.735336</ele>
        <time>2026-04-13T21:02:25.482Z</time>
      </trkpt>
      <trkpt lat="52.246324" lon="5.903695">
        <ele>38.539860</ele>
        <time>2026-04-13T21:02:32.459Z</time>
      </trkpt>
      <trkpt lat="52.246465" lon="5.904293">
        <ele>38.565678</ele>
        <time>2026-04-13T21:02:39.849Z</time>
      </trkpt>
      <trkpt lat="52.246623" lon="5.904584">
        <ele>38.899077</ele>
        <time>2026-04-13T21:02:44.655Z</time>
      </trkpt>
      <trkpt lat="52.246759" lon="5.904763">
        <ele>39.143613</ele>
        <time>2026-04-13T21:02:48.381Z</time>
      </trkpt>
      <trkpt lat="52.247619" lon="5.905619">
        <ele>40.553614</ele>
        <time>2026-04-13T21:03:15.337Z</time>
      </trkpt>
      <trkpt lat="52.248231" lon="5.906117">
        <ele>41.918656</ele>
        <time>2026-04-13T21:03:37.398Z</time>
      </trkpt>
      <trkpt lat="52.248593" lon="5.906536">
        <ele>42.968815</ele>
        <time>2026-04-13T21:03:51.849Z</time>
      </trkpt>
      <trkpt lat="52.248871" lon="5.907134">
        <ele>44.056898</ele>
        <time>2026-04-13T21:04:05.906Z</time>
      </trkpt>
      <trkpt lat="52.249183" lon="5.907966">
        <ele>45.219795</ele>
        <time>2026-04-13T21:04:22.092Z</time>
      </trkpt>
      <trkpt lat="52.249687" lon="5.908772">
        <ele>45.459534</ele>
        <time>2026-04-13T21:04:38.620Z</time>
      </trkpt>
      <trkpt lat="52.250012" lon="5.909245">
        <ele>45.607486</ele>
        <time>2026-04-13T21:04:47.422Z</time>
      </trkpt>
      <trkpt lat="52.250637" lon="5.910252">
        <ele>45.041940</ele>
        <time>2026-04-13T21:05:02.598Z</time>
      </trkpt>
      <trkpt lat="52.250714" lon="5.910271">
        <ele>44.872659</ele>
        <time>2026-04-13T21:05:03.862Z</time>
      </trkpt>
      <trkpt lat="52.250996" lon="5.910729">
        <ele>44.008204</ele>
        <time>2026-04-13T21:05:10.064Z</time>
      </trkpt>
      <trkpt lat="52.251342" lon="5.911224">
        <ele>43.008380</ele>
        <time>2026-04-13T21:05:16.917Z</time>
      </trkpt>
      <trkpt lat="52.251655" lon="5.911766">
        <ele>42.016818</ele>
        <time>2026-04-13T21:05:23.450Z</time>
      </trkpt>
      <trkpt lat="52.251632" lon="5.915203">
        <ele>35.635507</ele>
        <time>2026-04-13T21:05:54.942Z</time>
      </trkpt>
      <trkpt lat="52.251661" lon="5.916151">
        <ele>34.323524</ele>
        <time>2026-04-13T21:06:04.025Z</time>
      </trkpt>
      <trkpt lat="52.252019" lon="5.918561">
        <ele>31.424561</ele>
        <time>2026-04-13T21:06:28.773Z</time>
      </trkpt>
      <trkpt lat="52.252160" lon="5.918483">
        <ele>31.233457</ele>
        <time>2026-04-13T21:06:31.246Z</time>
      </trkpt>
      <trkpt lat="52.253126" lon="5.918303">
        <ele>29.985330</ele>
        <time>2026-04-13T21:06:48.114Z</time>
      </trkpt>
      <trkpt lat="52.253267" lon="5.918238">
        <ele>29.804541</ele>
        <time>2026-04-13T21:06:50.768Z</time>
      </trkpt>
      <trkpt lat="52.254486" lon="5.916854">
        <ele>28.807248</ele>
        <time>2026-04-13T21:07:18.163Z</time>
      </trkpt>
      <trkpt lat="52.254615" lon="5.916760">
        <ele>28.712355</ele>
        <time>2026-04-13T21:07:20.719Z</time>
      </trkpt>
      <trkpt lat="52.255465" lon="5.916536">
        <ele>28.160087</ele>
        <time>2026-04-13T21:07:36.073Z</time>
      </trkpt>
      <trkpt lat="52.256698" lon="5.916231">
        <ele>27.500647</ele>
        <time>2026-04-13T21:07:58.863Z</time>
      </trkpt>
      <trkpt lat="52.256941" lon="5.916147">
        <ele>27.563541</ele>
        <time>2026-04-13T21:08:03.762Z</time>
      </trkpt>
      <trkpt lat="52.257664" lon="5.915621">
        <ele>27.763949</ele>
        <time>2026-04-13T21:08:20.549Z</time>
      </trkpt>
      <trkpt lat="52.258571" lon="5.914831">
        <ele>28.136843</ele>
        <time>2026-04-13T21:08:44.242Z</time>
      </trkpt>
      <trkpt lat="52.259471" lon="5.913698">
        <ele>28.731074</ele>
        <time>2026-04-13T21:09:09.955Z</time>
      </trkpt>
      <trkpt lat="52.260186" lon="5.912390">
        <ele>28.791208</ele>
        <time>2026-04-13T21:09:31.470Z</time>
      </trkpt>
      <trkpt lat="52.260260" lon="5.912254">
        <ele>28.782068</ele>
        <time>2026-04-13T21:09:33.609Z</time>
      </trkpt>
      <trkpt lat="52.260608" lon="5.912693">
        <ele>28.745985</ele>
        <time>2026-04-13T21:09:49.515Z</time>
      </trkpt>
      <trkpt lat="52.261273" lon="5.913356">
        <ele>28.778317</ele>
        <time>2026-04-13T21:10:17.740Z</time>
      </trkpt>
      <trkpt lat="52.261913" lon="5.913659">
        <ele>28.901882</ele>
        <time>2026-04-13T21:10:42.741Z</time>
      </trkpt>
      <trkpt lat="52.262332" lon="5.913556">
        <ele>28.980457</ele>
        <time>2026-04-13T21:10:59.166Z</time>
      </trkpt>
      <trkpt lat="52.262727" lon="5.913702">
        <ele>29.094471</ele>
        <time>2026-04-13T21:11:15.237Z</time>
      </trkpt>
      <trkpt lat="52.263413" lon="5.913382">
        <ele>29.720373</ele>
        <time>2026-04-13T21:11:44.136Z</time>
      </trkpt>
      <trkpt lat="52.264383" lon="5.913130">
        <ele>30.582082</ele>
        <time>2026-04-13T21:12:24.812Z</time>
      </trkpt>
      <trkpt lat="52.264964" lon="5.912979">
        <ele>31.376763</ele>
        <time>2026-04-13T21:12:49.805Z</time>
      </trkpt>
      <trkpt lat="52.267334" lon="5.912224">
        <ele>35.111691</ele>
        <time>2026-04-13T21:14:35.782Z</time>
      </trkpt>
      <trkpt lat="52.267398" lon="5.910806">
        <ele>36.658708</ele>
        <time>2026-04-13T21:15:16.144Z</time>
      </trkpt>
      <trkpt lat="52.267721" lon="5.910702">
        <ele>37.301781</ele>
        <time>2026-04-13T21:15:31.330Z</time>
      </trkpt>
      <trkpt lat="52.268168" lon="5.910769">
        <ele>38.178607</ele>
        <time>2026-04-13T21:15:51.744Z</time>
      </trkpt>
      <trkpt lat="52.268284" lon="5.910266">
        <ele>38.821172</ele>
        <time>2026-04-13T21:16:06.584Z</time>
      </trkpt>
      <trkpt lat="52.268492" lon="5.909996">
        <ele>39.340069</ele>
        <time>2026-04-13T21:16:18.562Z</time>
      </trkpt>
      <trkpt lat="52.268727" lon="5.909810">
        <ele>39.904104</ele>
        <time>2026-04-13T21:16:30.448Z</time>
      </trkpt>
      <trkpt lat="52.268940" lon="5.909378">
        <ele>40.853051</ele>
        <time>2026-04-13T21:16:46.463Z</time>
      </trkpt>
      <trkpt lat="52.268996" lon="5.908946">
        <ele>41.608389</ele>
        <time>2026-04-13T21:16:59.696Z</time>
      </trkpt>
      <trkpt lat="52.268790" lon="5.908414">
        <ele>42.685253</ele>
        <time>2026-04-13T21:17:19.257Z</time>
      </trkpt>
      <trkpt lat="52.268741" lon="5.908096">
        <ele>43.246176</ele>
        <time>2026-04-13T21:17:29.625Z</time>
      </trkpt>
      <trkpt lat="52.268816" lon="5.907811">
        <ele>43.776837</ele>
        <time>2026-04-13T21:17:39.489Z</time>
      </trkpt>
      <trkpt lat="52.268873" lon="5.907220">
        <ele>44.790495</ele>
        <time>2026-04-13T21:17:58.495Z</time>
      </trkpt>
      <trkpt lat="52.269081" lon="5.906994">
        <ele>45.346715</ele>
        <time>2026-04-13T21:18:11.315Z</time>
      </trkpt>
      <trkpt lat="52.269299" lon="5.906900">
        <ele>45.848777</ele>
        <time>2026-04-13T21:18:22.708Z</time>
      </trkpt>
      <trkpt lat="52.269481" lon="5.906055">
        <ele>47.069497</ele>
        <time>2026-04-13T21:18:49.157Z</time>
      </trkpt>
      <trkpt lat="52.269890" lon="5.905953">
        <ele>47.990809</ele>
        <time>2026-04-13T21:19:07.864Z</time>
      </trkpt>
      <trkpt lat="52.269975" lon="5.905865">
        <ele>48.214877</ele>
        <time>2026-04-13T21:19:12.287Z</time>
      </trkpt>
      <trkpt lat="52.269992" lon="5.905621">
        <ele>48.549519</ele>
        <time>2026-04-13T21:19:18.793Z</time>
      </trkpt>
      <trkpt lat="52.269957" lon="5.905020">
        <ele>48.806325</ele>
        <time>2026-04-13T21:19:34.307Z</time>
      </trkpt>
      <trkpt lat="52.269716" lon="5.904592">
        <ele>48.869161</ele>
        <time>2026-04-13T21:19:48.696Z</time>
      </trkpt>
      <trkpt lat="52.269673" lon="5.904301">
        <ele>48.901503</ele>
        <time>2026-04-13T21:19:55.831Z</time>
      </trkpt>
      <trkpt lat="52.269716" lon="5.904138">
        <ele>48.920680</ele>
        <time>2026-04-13T21:19:59.968Z</time>
      </trkpt>
      <trkpt lat="52.269774" lon="5.904045">
        <ele>48.935025</ele>
        <time>2026-04-13T21:20:03.020Z</time>
      </trkpt>
      <trkpt lat="52.270359" lon="5.904378">
        <ele>49.044391</ele>
        <time>2026-04-13T21:20:25.143Z</time>
      </trkpt>
      <trkpt lat="52.270878" lon="5.904627">
        <ele>48.773180</ele>
        <time>2026-04-13T21:20:43.879Z</time>
      </trkpt>
      <trkpt lat="52.271399" lon="5.904950">
        <ele>48.314356</ele>
        <time>2026-04-13T21:21:03.357Z</time>
      </trkpt>
      <trkpt lat="52.271443" lon="5.905738">
        <ele>47.915668</ele>
        <time>2026-04-13T21:21:20.372Z</time>
      </trkpt>
      <trkpt lat="52.271486" lon="5.906016">
        <ele>47.771191</ele>
        <time>2026-04-13T21:21:26.504Z</time>
      </trkpt>
      <trkpt lat="52.271681" lon="5.906827">
        <ele>46.995409</ele>
        <time>2026-04-13T21:21:45.234Z</time>
      </trkpt>
      <trkpt lat="52.272094" lon="5.908535">
        <ele>44.880718</ele>
        <time>2026-04-13T21:22:22.114Z</time>
      </trkpt>
      <trkpt lat="52.272270" lon="5.908777">
        <ele>44.447899</ele>
        <time>2026-04-13T21:22:29.233Z</time>
      </trkpt>
      <trkpt lat="52.272744" lon="5.909091">
        <ele>43.183422</ele>
        <time>2026-04-13T21:22:44.961Z</time>
      </trkpt>
      <trkpt lat="52.273827" lon="5.909807">
        <ele>40.068063</ele>
        <time>2026-04-13T21:23:21.450Z</time>
      </trkpt>
      <trkpt lat="52.274482" lon="5.910302">
        <ele>39.208147</ele>
        <time>2026-04-13T21:23:44.937Z</time>
      </trkpt>
      <trkpt lat="52.275146" lon="5.911281">
        <ele>38.822991</ele>
        <time>2026-04-13T21:24:17.105Z</time>
      </trkpt>
      <trkpt lat="52.275475" lon="5.911153">
        <ele>38.677334</ele>
        <time>2026-04-13T21:24:24.830Z</time>
      </trkpt>
      <trkpt lat="52.275649" lon="5.910904">
        <ele>38.862434</ele>
        <time>2026-04-13T21:24:30.768Z</time>
      </trkpt>
      <trkpt lat="52.275725" lon="5.910659">
        <ele>39.129039</ele>
        <time>2026-04-13T21:24:35.407Z</time>
      </trkpt>
      <trkpt lat="52.275659" lon="5.908712">
        <ele>41.021644</ele>
        <time>2026-04-13T21:25:10.014Z</time>
      </trkpt>
      <trkpt lat="52.275659" lon="5.908702">
        <ele>41.031350</ele>
        <time>2026-04-13T21:25:10.172Z</time>
      </trkpt>
      <trkpt lat="52.276317" lon="5.908731">
        <ele>41.483406</ele>
        <time>2026-04-13T21:25:25.242Z</time>
      </trkpt>
      <trkpt lat="52.276128" lon="5.906874">
        <ele>41.457644</ele>
        <time>2026-04-13T21:25:46.075Z</time>
      </trkpt>
      <trkpt lat="52.274321" lon="5.906093">
        <ele>40.528352</ele>
        <time>2026-04-13T21:26:53.073Z</time>
      </trkpt>
      <trkpt lat="52.274865" lon="5.901966">
        <ele>37.681958</ele>
        <time>2026-04-13T21:27:36.424Z</time>
      </trkpt>
      <trkpt lat="52.275040" lon="5.900643">
        <ele>36.396152</ele>
        <time>2026-04-13T21:27:49.299Z</time>
      </trkpt>
      <trkpt lat="52.275128" lon="5.897112">
        <ele>33.177548</ele>
        <time>2026-04-13T21:28:23.746Z</time>
      </trkpt>
      <trkpt lat="52.275072" lon="5.896566">
        <ele>33.112741</ele>
        <time>2026-04-13T21:28:29.667Z</time>
      </trkpt>
      <trkpt lat="52.274827" lon="5.894188">
        <ele>33.017992</ele>
        <time>2026-04-13T21:28:59.108Z</time>
      </trkpt>
      <trkpt lat="52.274512" lon="5.891170">
        <ele>33.674087</ele>
        <time>2026-04-13T21:29:41.023Z</time>
      </trkpt>
      <trkpt lat="52.275281" lon="5.890839">
        <ele>32.648532</ele>
        <time>2026-04-13T21:30:03.631Z</time>
      </trkpt>
      <trkpt lat="52.276188" lon="5.890514">
        <ele>31.451043</ele>
        <time>2026-04-13T21:30:29.031Z</time>
      </trkpt>
      <trkpt lat="52.276472" lon="5.890256">
        <ele>31.267180</ele>
        <time>2026-04-13T21:30:38.468Z</time>
      </trkpt>
      <trkpt lat="52.276715" lon="5.890197">
        <ele>31.136844</ele>
        <time>2026-04-13T21:30:45.784Z</time>
      </trkpt>
      <trkpt lat="52.277043" lon="5.890180">
        <ele>30.962741</ele>
        <time>2026-04-13T21:30:55.811Z</time>
      </trkpt>
      <trkpt lat="52.277412" lon="5.890094">
        <ele>30.764993</ele>
        <time>2026-04-13T21:31:07.590Z</time>
      </trkpt>
      <trkpt lat="52.279954" lon="5.890274">
        <ele>30.206937</ele>
        <time>2026-04-13T21:32:28.272Z</time>
      </trkpt>
      <trkpt lat="52.280504" lon="5.889907">
        <ele>29.806490</ele>
        <time>2026-04-13T21:32:46.140Z</time>
      </trkpt>
      <trkpt lat="52.280814" lon="5.889761">
        <ele>29.589025</ele>
        <time>2026-04-13T21:32:55.617Z</time>
      </trkpt>
      <trkpt lat="52.281144" lon="5.889722">
        <ele>29.365998</ele>
        <time>2026-04-13T21:33:05.244Z</time>
      </trkpt>
      <trkpt lat="52.281399" lon="5.889790">
        <ele>29.191836</ele>
        <time>2026-04-13T21:33:12.790Z</time>
      </trkpt>
      <trkpt lat="52.281665" lon="5.889931">
        <ele>29.066652</ele>
        <time>2026-04-13T21:33:21.031Z</time>
      </trkpt>
      <trkpt lat="52.281794" lon="5.889962">
        <ele>29.022125</ele>
        <time>2026-04-13T21:33:24.881Z</time>
      </trkpt>
      <trkpt lat="52.282527" lon="5.890139">
        <ele>28.769092</ele>
        <time>2026-04-13T21:33:47.399Z</time>
      </trkpt>
      <trkpt lat="52.282645" lon="5.890197">
        <ele>28.727013</ele>
        <time>2026-04-13T21:33:51.217Z</time>
      </trkpt>
      <trkpt lat="52.282952" lon="5.890507">
        <ele>28.603783</ele>
        <time>2026-04-13T21:34:02.686Z</time>
      </trkpt>
      <trkpt lat="52.283362" lon="5.890824">
        <ele>28.607980</ele>
        <time>2026-04-13T21:34:17.638Z</time>
      </trkpt>
      <trkpt lat="52.283646" lon="5.890970">
        <ele>28.742306</ele>
        <time>2026-04-13T21:34:27.700Z</time>
      </trkpt>
      <trkpt lat="52.284214" lon="5.890992">
        <ele>28.998653</ele>
        <time>2026-04-13T21:34:47.233Z</time>
      </trkpt>
      <trkpt lat="52.284651" lon="5.891067">
        <ele>29.196907</ele>
        <time>2026-04-13T21:35:02.189Z</time>
      </trkpt>
      <trkpt lat="52.284832" lon="5.891036">
        <ele>29.279019</ele>
        <time>2026-04-13T21:35:08.331Z</time>
      </trkpt>
      <trkpt lat="52.285015" lon="5.890932">
        <ele>29.380281</ele>
        <time>2026-04-13T21:35:14.851Z</time>
      </trkpt>
      <trkpt lat="52.285092" lon="5.890852">
        <ele>29.436656</ele>
        <time>2026-04-13T21:35:17.903Z</time>
      </trkpt>
      <trkpt lat="52.286030" lon="5.889643">
        <ele>30.174736</ele>
        <time>2026-04-13T21:35:58.781Z</time>
      </trkpt>
      <trkpt lat="52.286199" lon="5.889524">
        <ele>30.288437</ele>
        <time>2026-04-13T21:36:05.208Z</time>
      </trkpt>
      <trkpt lat="52.286616" lon="5.889323">
        <ele>30.701082</ele>
        <time>2026-04-13T21:36:20.685Z</time>
      </trkpt>
      <trkpt lat="52.286905" lon="5.889297">
        <ele>31.100583</ele>
        <time>2026-04-13T21:36:31.345Z</time>
      </trkpt>
      <trkpt lat="52.286885" lon="5.888935">
        <ele>31.407471</ele>
        <time>2026-04-13T21:36:39.744Z</time>
      </trkpt>
      <trkpt lat="52.287055" lon="5.888318">
        <ele>31.978821</ele>
        <time>2026-04-13T21:36:55.787Z</time>
      </trkpt>
      <trkpt lat="52.288227" lon="5.886733">
        <ele>33.712685</ele>
        <time>2026-04-13T21:37:55.192Z</time>
      </trkpt>
      <trkpt lat="52.288443" lon="5.886393">
        <ele>33.995590</ele>
        <time>2026-04-13T21:38:06.125Z</time>
      </trkpt>
      <trkpt lat="52.288772" lon="5.885586">
        <ele>34.555291</ele>
        <time>2026-04-13T21:38:25.950Z</time>
      </trkpt>
      <trkpt lat="52.289379" lon="5.883817">
        <ele>34.690719</ele>
        <time>2026-04-13T21:39:04.028Z</time>
      </trkpt>
      <trkpt lat="52.290909" lon="5.879446">
        <ele>36.591919</ele>
        <time>2026-04-13T21:40:50.844Z</time>
      </trkpt>
      <trkpt lat="52.291740" lon="5.877117">
        <ele>38.563538</ele>
        <time>2026-04-13T21:41:53.024Z</time>
      </trkpt>
      <trkpt lat="52.292212" lon="5.876291">
        <ele>39.574594</ele>
        <time>2026-04-13T21:42:19.052Z</time>
      </trkpt>
      <trkpt lat="52.292331" lon="5.876244">
        <ele>39.753619</ele>
        <time>2026-04-13T21:42:23.632Z</time>
      </trkpt>
      <trkpt lat="52.292517" lon="5.876090">
        <ele>40.058503</ele>
        <time>2026-04-13T21:42:31.574Z</time>
      </trkpt>
      <trkpt lat="52.292966" lon="5.875642">
        <ele>41.120005</ele>
        <time>2026-04-13T21:42:52.782Z</time>
      </trkpt>
      <trkpt lat="52.293252" lon="5.875009">
        <ele>42.374593</ele>
        <time>2026-04-13T21:43:13.271Z</time>
      </trkpt>
      <trkpt lat="52.293610" lon="5.875005">
        <ele>43.307727</ele>
        <time>2026-04-13T21:43:29.197Z</time>
      </trkpt>
      <trkpt lat="52.294713" lon="5.874609">
        <ele>46.184708</ele>
        <time>2026-04-13T21:44:20.717Z</time>
      </trkpt>
      <trkpt lat="52.295042" lon="5.874569">
        <ele>46.993086</ele>
        <time>2026-04-13T21:44:35.052Z</time>
      </trkpt>
      <trkpt lat="52.295379" lon="5.874601">
        <ele>47.820232</ele>
        <time>2026-04-13T21:44:49.381Z</time>
      </trkpt>
      <trkpt lat="52.296169" lon="5.874813">
        <ele>49.726286</ele>
        <time>2026-04-13T21:45:22.253Z</time>
      </trkpt>
      <trkpt lat="52.296593" lon="5.874830">
        <ele>50.516994</ele>
        <time>2026-04-13T21:45:39.463Z</time>
      </trkpt>
      <trkpt lat="52.296807" lon="5.874695">
        <ele>50.944620</ele>
        <time>2026-04-13T21:45:48.812Z</time>
      </trkpt>
      <trkpt lat="52.297216" lon="5.874250">
        <ele>51.860501</ele>
        <time>2026-04-13T21:46:08.744Z</time>
      </trkpt>
      <trkpt lat="52.297742" lon="5.874266">
        <ele>52.841301</ele>
        <time>2026-04-13T21:46:29.689Z</time>
      </trkpt>
      <trkpt lat="52.297857" lon="5.874429">
        <ele>52.995413</ele>
        <time>2026-04-13T21:46:35.608Z</time>
      </trkpt>
      <trkpt lat="52.297972" lon="5.874668">
        <ele>53.140025</ele>
        <time>2026-04-13T21:46:42.763Z</time>
      </trkpt>
      <trkpt lat="52.298014" lon="5.874861">
        <ele>53.237439</ele>
        <time>2026-04-13T21:46:47.526Z</time>
      </trkpt>
      <trkpt lat="52.298001" lon="5.875443">
        <ele>53.514380</ele>
        <time>2026-04-13T21:47:00.712Z</time>
      </trkpt>
      <trkpt lat="52.298093" lon="5.875636">
        <ele>53.630744</ele>
        <time>2026-04-13T21:47:06.051Z</time>
      </trkpt>
      <trkpt lat="52.298472" lon="5.876227">
        <ele>54.037964</ele>
        <time>2026-04-13T21:47:23.831Z</time>
      </trkpt>
      <trkpt lat="52.298568" lon="5.876428">
        <ele>54.159239</ele>
        <time>2026-04-13T21:47:28.911Z</time>
      </trkpt>
      <trkpt lat="52.299818" lon="5.876590">
        <ele>53.474321</ele>
        <time>2026-04-13T21:48:07.348Z</time>
      </trkpt>
      <trkpt lat="52.300120" lon="5.876582">
        <ele>53.241180</ele>
        <time>2026-04-13T21:48:16.165Z</time>
      </trkpt>
      <trkpt lat="52.302827" lon="5.879170">
        <ele>48.819419</ele>
        <time>2026-04-13T21:49:44.292Z</time>
      </trkpt>
      <trkpt lat="52.303278" lon="5.879667">
        <ele>48.040814</ele>
        <time>2026-04-13T21:49:59.898Z</time>
      </trkpt>
      <trkpt lat="52.304134" lon="5.880736">
        <ele>46.407957</ele>
        <time>2026-04-13T21:50:30.793Z</time>
      </trkpt>
      <trkpt lat="52.305267" lon="5.881854">
        <ele>44.367093</ele>
        <time>2026-04-13T21:51:07.614Z</time>
      </trkpt>
      <trkpt lat="52.305520" lon="5.882035">
        <ele>43.956201</ele>
        <time>2026-04-13T21:51:15.229Z</time>
      </trkpt>
      <trkpt lat="52.306488" lon="5.882947">
        <ele>42.293975</ele>
        <time>2026-04-13T21:51:46.741Z</time>
      </trkpt>
      <trkpt lat="52.306859" lon="5.883202">
        <ele>42.004810</ele>
        <time>2026-04-13T21:51:58.498Z</time>
      </trkpt>
      <trkpt lat="52.307960" lon="5.883923">
        <ele>41.676611</ele>
        <time>2026-04-13T21:52:35.345Z</time>
      </trkpt>
      <trkpt lat="52.308354" lon="5.884353">
        <ele>41.502157</ele>
        <time>2026-04-13T21:52:51.523Z</time>
      </trkpt>
      <trkpt lat="52.308758" lon="5.884679">
        <ele>41.209953</ele>
        <time>2026-04-13T21:53:07.087Z</time>
      </trkpt>
      <trkpt lat="52.309278" lon="5.884707">
        <ele>40.872482</ele>
        <time>2026-04-13T21:53:23.348Z</time>
      </trkpt>
      <trkpt lat="52.309291" lon="5.884460">
        <ele>40.774167</ele>
        <time>2026-04-13T21:53:25.634Z</time>
      </trkpt>
      <trkpt lat="52.309548" lon="5.884622">
        <ele>40.595517</ele>
        <time>2026-04-13T21:53:33.474Z</time>
      </trkpt>
      <trkpt lat="52.309674" lon="5.884839">
        <ele>40.476837</ele>
        <time>2026-04-13T21:53:38.540Z</time>
      </trkpt>
      <trkpt lat="52.309828" lon="5.885110">
        <ele>40.062951</ele>
        <time>2026-04-13T21:53:44.624Z</time>
      </trkpt>
      <trkpt lat="52.309971" lon="5.885569">
        <ele>39.185149</ele>
        <time>2026-04-13T21:53:52.894Z</time>
      </trkpt>
      <trkpt lat="52.310491" lon="5.886534">
        <ele>36.993339</ele>
        <time>2026-04-13T21:54:12.949Z</time>
      </trkpt>
      <trkpt lat="52.313327" lon="5.886849">
        <ele>30.564390</ele>
        <time>2026-04-13T21:55:28.844Z</time>
      </trkpt>
      <trkpt lat="52.313290" lon="5.886670">
        <ele>30.462634</ele>
        <time>2026-04-13T21:55:32.783Z</time>
      </trkpt>
      <trkpt lat="52.315464" lon="5.889958">
        <ele>29.160241</ele>
        <time>2026-04-13T21:57:21.040Z</time>
      </trkpt>
      <trkpt lat="52.315519" lon="5.890046">
        <ele>29.157821</ele>
        <time>2026-04-13T21:57:22.575Z</time>
      </trkpt>
      <trkpt lat="52.315655" lon="5.890295">
        <ele>29.189001</ele>
        <time>2026-04-13T21:57:26.685Z</time>
      </trkpt>
      <trkpt lat="52.315995" lon="5.891164">
        <ele>29.285344</ele>
        <time>2026-04-13T21:57:39.849Z</time>
      </trkpt>
      <trkpt lat="52.316143" lon="5.891685">
        <ele>29.338990</ele>
        <time>2026-04-13T21:57:47.201Z</time>
      </trkpt>
      <trkpt lat="52.316249" lon="5.892430">
        <ele>29.410416</ele>
        <time>2026-04-13T21:57:57.029Z</time>
      </trkpt>
      <trkpt lat="52.316393" lon="5.893503">
        <ele>29.359995</ele>
        <time>2026-04-13T21:58:11.166Z</time>
      </trkpt>
      <trkpt lat="52.316680" lon="5.894601">
        <ele>29.269940</ele>
        <time>2026-04-13T21:58:25.095Z</time>
      </trkpt>
      <trkpt lat="52.316675" lon="5.894706">
        <ele>29.261998</ele>
        <time>2026-04-13T21:58:26.151Z</time>
      </trkpt>
      <trkpt lat="52.316748" lon="5.894796">
        <ele>29.250721</ele>
        <time>2026-04-13T21:58:29.376Z</time>
      </trkpt>
      <trkpt lat="52.316967" lon="5.895344">
        <ele>29.204343</ele>
        <time>2026-04-13T21:58:43.745Z</time>
      </trkpt>
      <trkpt lat="52.317149" lon="5.895941">
        <ele>29.183482</ele>
        <time>2026-04-13T21:58:58.368Z</time>
      </trkpt>
      <trkpt lat="52.322229" lon="5.887799">
        <ele>28.999454</ele>
        <time>2026-04-13T22:01:12.100Z</time>
      </trkpt>
      <trkpt lat="52.322370" lon="5.887606">
        <ele>29.037743</ele>
        <time>2026-04-13T22:01:15.726Z</time>
      </trkpt>
      <trkpt lat="52.322521" lon="5.887447">
        <ele>29.075143</ele>
        <time>2026-04-13T22:01:19.290Z</time>
      </trkpt>
      <trkpt lat="52.322822" lon="5.887254">
        <ele>29.142475</ele>
        <time>2026-04-13T22:01:25.792Z</time>
      </trkpt>
      <trkpt lat="52.324257" lon="5.886643">
        <ele>29.251088</ele>
        <time>2026-04-13T22:01:55.783Z</time>
      </trkpt>
      <trkpt lat="52.324262" lon="5.886696">
        <ele>29.249013</ele>
        <time>2026-04-13T22:01:56.856Z</time>
      </trkpt>
      <trkpt lat="52.324284" lon="5.886686">
        <ele>29.247567</ele>
        <time>2026-04-13T22:01:57.702Z</time>
      </trkpt>
      <trkpt lat="52.324552" lon="5.886571">
        <ele>29.230026</ele>
        <time>2026-04-13T22:02:07.781Z</time>
      </trkpt>
      <trkpt lat="52.324665" lon="5.886518">
        <ele>29.222583</ele>
        <time>2026-04-13T22:02:12.049Z</time>
      </trkpt>
      <trkpt lat="52.324458" lon="5.887922">
        <ele>29.136367</ele>
        <time>2026-04-13T22:02:43.759Z</time>
      </trkpt>
      <trkpt lat="52.324475" lon="5.888034">
        <ele>29.124023</ele>
        <time>2026-04-13T22:02:46.269Z</time>
      </trkpt>
      <trkpt lat="52.326979" lon="5.891646">
        <ele>28.739119</ele>
        <time>2026-04-13T22:04:49.026Z</time>
      </trkpt>
      <trkpt lat="52.330762" lon="5.897115">
        <ele>28.656232</ele>
        <time>2026-04-13T22:07:57.449Z</time>
      </trkpt>
      <trkpt lat="52.332148" lon="5.899195">
        <ele>27.121296</ele>
        <time>2026-04-13T22:09:02.277Z</time>
      </trkpt>
      <trkpt lat="52.333495" lon="5.901114">
        <ele>25.749305</ele>
        <time>2026-04-13T22:10:04.381Z</time>
      </trkpt>
      <trkpt lat="52.333624" lon="5.901308">
        <ele>25.617813</ele>
        <time>2026-04-13T22:10:10.692Z</time>
      </trkpt>
      <trkpt lat="52.334452" lon="5.902552">
        <ele>25.517126</ele>
        <time>2026-04-13T22:10:52.108Z</time>
      </trkpt>
      <trkpt lat="52.335007" lon="5.903299">
        <ele>25.458930</ele>
        <time>2026-04-13T22:11:19.009Z</time>
      </trkpt>
      <trkpt lat="52.335466" lon="5.903978">
        <ele>25.339168</ele>
        <time>2026-04-13T22:11:41.956Z</time>
      </trkpt>
      <trkpt lat="52.336795" lon="5.905872">
        <ele>25.058216</ele>
        <time>2026-04-13T22:12:45.719Z</time>
      </trkpt>
      <trkpt lat="52.338746" lon="5.908698">
        <ele>25.187661</ele>
        <time>2026-04-13T22:14:22.553Z</time>
      </trkpt>
      <trkpt lat="52.338865" lon="5.908831">
        <ele>25.212338</ele>
        <time>2026-04-13T22:14:28.252Z</time>
      </trkpt>
      <trkpt lat="52.338888" lon="5.908851">
        <ele>25.216798</ele>
        <time>2026-04-13T22:14:29.282Z</time>
      </trkpt>
      <trkpt lat="52.338912" lon="5.908807">
        <ele>25.222969</ele>
        <time>2026-04-13T22:14:30.088Z</time>
      </trkpt>
      <trkpt lat="52.339480" lon="5.907804">
        <ele>25.501921</ele>
        <time>2026-04-13T22:15:03.394Z</time>
      </trkpt>
      <trkpt lat="52.340473" lon="5.905789">
        <ele>25.930333</ele>
        <time>2026-04-13T22:16:04.314Z</time>
      </trkpt>
      <trkpt lat="52.340918" lon="5.904842">
        <ele>25.923182</ele>
        <time>2026-04-13T22:16:31.017Z</time>
      </trkpt>
      <trkpt lat="52.341175" lon="5.904201">
        <ele>25.918593</ele>
        <time>2026-04-13T22:16:48.043Z</time>
      </trkpt>
      <trkpt lat="52.341245" lon="5.903096">
        <ele>26.176234</ele>
        <time>2026-04-13T22:17:13.047Z</time>
      </trkpt>
      <trkpt lat="52.341302" lon="5.901334">
        <ele>26.716819</ele>
        <time>2026-04-13T22:17:55.822Z</time>
      </trkpt>
      <trkpt lat="52.341338" lon="5.900609">
        <ele>27.069940</ele>
        <time>2026-04-13T22:18:14.960Z</time>
      </trkpt>
      <trkpt lat="52.341374" lon="5.899885">
        <ele>27.532659</ele>
        <time>2026-04-13T22:18:33.994Z</time>
      </trkpt>
      <trkpt lat="52.341691" lon="5.900004">
        <ele>27.871758</ele>
        <time>2026-04-13T22:18:46.139Z</time>
      </trkpt>
      <trkpt lat="52.342539" lon="5.900183">
        <ele>28.712012</ele>
        <time>2026-04-13T22:19:17.295Z</time>
      </trkpt>
      <trkpt lat="52.343064" lon="5.900369">
        <ele>28.855877</ele>
        <time>2026-04-13T22:19:35.341Z</time>
      </trkpt>
      <trkpt lat="52.343560" lon="5.900493">
        <ele>28.990260</ele>
        <time>2026-04-13T22:19:51.782Z</time>
      </trkpt>
      <trkpt lat="52.343674" lon="5.900270">
        <ele>29.037837</ele>
        <time>2026-04-13T22:19:58.496Z</time>
      </trkpt>
      <trkpt lat="52.343879" lon="5.899972">
        <ele>29.111267</ele>
        <time>2026-04-13T22:20:08.657Z</time>
      </trkpt>
      <trkpt lat="52.344027" lon="5.899659">
        <ele>29.176028</ele>
        <time>2026-04-13T22:20:17.531Z</time>
      </trkpt>
      <trkpt lat="52.344073" lon="5.899563">
        <ele>29.178739</ele>
        <time>2026-04-13T22:20:20.255Z</time>
      </trkpt>
      <trkpt lat="52.344257" lon="5.899047">
        <ele>29.192012</ele>
        <time>2026-04-13T22:20:33.493Z</time>
      </trkpt>
      <trkpt lat="52.344505" lon="5.898416">
        <ele>29.208680</ele>
        <time>2026-04-13T22:20:50.222Z</time>
      </trkpt>
      <trkpt lat="52.344515" lon="5.897656">
        <ele>29.225567</ele>
        <time>2026-04-13T22:21:07.672Z</time>
      </trkpt>
      <trkpt lat="52.344426" lon="5.897311">
        <ele>29.233887</ele>
        <time>2026-04-13T22:21:16.331Z</time>
      </trkpt>
      <trkpt lat="52.344273" lon="5.897003">
        <ele>29.250068</ele>
        <time>2026-04-13T22:21:25.623Z</time>
      </trkpt>
      <trkpt lat="52.344114" lon="5.896666">
        <ele>29.314296</ele>
        <time>2026-04-13T22:21:35.822Z</time>
      </trkpt>
      <trkpt lat="52.344022" lon="5.896359">
        <ele>29.365875</ele>
        <time>2026-04-13T22:21:44.081Z</time>
      </trkpt>
      <trkpt lat="52.344029" lon="5.896206">
        <ele>29.389019</ele>
        <time>2026-04-13T22:21:47.824Z</time>
      </trkpt>
      <trkpt lat="52.344092" lon="5.895870">
        <ele>29.442035</ele>
        <time>2026-04-13T22:21:56.423Z</time>
      </trkpt>
      <trkpt lat="52.344185" lon="5.894373">
        <ele>29.669008</ele>
        <time>2026-04-13T22:22:31.528Z</time>
      </trkpt>
      <trkpt lat="52.344226" lon="5.893716">
        <ele>29.523356</ele>
        <time>2026-04-13T22:22:45.905Z</time>
      </trkpt>
      <trkpt lat="52.344273" lon="5.893561">
        <ele>29.472410</ele>
        <time>2026-04-13T22:22:49.651Z</time>
      </trkpt>
      <trkpt lat="52.344245" lon="5.893327">
        <ele>29.402208</ele>
        <time>2026-04-13T22:22:54.802Z</time>
      </trkpt>
      <trkpt lat="52.344314" lon="5.892551">
        <ele>29.171336</ele>
        <time>2026-04-13T22:23:11.705Z</time>
      </trkpt>
      <trkpt lat="52.344372" lon="5.892235">
        <ele>29.074193</ele>
        <time>2026-04-13T22:23:18.797Z</time>
      </trkpt>
      <trkpt lat="52.344520" lon="5.890755">
        <ele>28.768753</ele>
        <time>2026-04-13T22:23:51.426Z</time>
      </trkpt>
      <trkpt lat="52.344728" lon="5.888663">
        <ele>28.601144</ele>
        <time>2026-04-13T22:24:39.604Z</time>
      </trkpt>
      <trkpt lat="52.345061" lon="5.885368">
        <ele>28.316471</ele>
        <time>2026-04-13T22:25:54.872Z</time>
      </trkpt>
      <trkpt lat="52.345100" lon="5.885231">
        <ele>28.256371</ele>
        <time>2026-04-13T22:25:58.167Z</time>
      </trkpt>
      <trkpt lat="52.345075" lon="5.885088">
        <ele>28.197227</ele>
        <time>2026-04-13T22:26:01.390Z</time>
      </trkpt>
      <trkpt lat="52.345012" lon="5.884256">
        <ele>27.863862</ele>
        <time>2026-04-13T22:26:19.317Z</time>
      </trkpt>
      <trkpt lat="52.345122" lon="5.883815">
        <ele>27.674451</ele>
        <time>2026-04-13T22:26:29.395Z</time>
      </trkpt>
      <trkpt lat="52.345337" lon="5.883422">
        <ele>27.464679</ele>
        <time>2026-04-13T22:26:40.492Z</time>
      </trkpt>
      <trkpt lat="52.345546" lon="5.882860">
        <ele>27.222081</ele>
        <time>2026-04-13T22:26:54.563Z</time>
      </trkpt>
      <trkpt lat="52.345703" lon="5.882166">
        <ele>27.167487</ele>
        <time>2026-04-13T22:27:10.798Z</time>
      </trkpt>
      <trkpt lat="52.345799" lon="5.880586">
        <ele>27.050354</ele>
        <time>2026-04-13T22:27:46.781Z</time>
      </trkpt>
      <trkpt lat="52.345872" lon="5.880273">
        <ele>27.025639</ele>
        <time>2026-04-13T22:27:53.957Z</time>
      </trkpt>
      <trkpt lat="52.345965" lon="5.879341">
        <ele>27.088039</ele>
        <time>2026-04-13T22:28:14.034Z</time>
      </trkpt>
      <trkpt lat="52.346007" lon="5.879171">
        <ele>27.108068</ele>
        <time>2026-04-13T22:28:17.878Z</time>
      </trkpt>
      <trkpt lat="52.346145" lon="5.877961">
        <ele>27.242509</ele>
        <time>2026-04-13T22:28:43.490Z</time>
      </trkpt>
      <trkpt lat="52.346203" lon="5.877806">
        <ele>27.262362</ele>
        <time>2026-04-13T22:28:47.346Z</time>
      </trkpt>
      <trkpt lat="52.346376" lon="5.877689">
        <ele>27.295829</ele>
        <time>2026-04-13T22:28:53.900Z</time>
      </trkpt>
      <trkpt lat="52.346511" lon="5.877479">
        <ele>27.329125</ele>
        <time>2026-04-13T22:29:00.438Z</time>
      </trkpt>
      <trkpt lat="52.346477" lon="5.877172">
        <ele>27.372876</ele>
        <time>2026-04-13T22:29:07.094Z</time>
      </trkpt>
      <trkpt lat="52.347039" lon="5.876948">
        <ele>27.507161</ele>
        <time>2026-04-13T22:29:29.278Z</time>
      </trkpt>
      <trkpt lat="52.347340" lon="5.876810">
        <ele>27.579730</ele>
        <time>2026-04-13T22:29:41.294Z</time>
      </trkpt>
      <trkpt lat="52.347334" lon="5.876762">
        <ele>27.586679</ele>
        <time>2026-04-13T22:29:42.291Z</time>
      </trkpt>
      <trkpt lat="52.347050" lon="5.876431">
        <ele>27.667616</ele>
        <time>2026-04-13T22:29:49.602Z</time>
      </trkpt>
      <trkpt lat="52.346907" lon="5.876114">
        <ele>27.723502</ele>
        <time>2026-04-13T22:29:54.527Z</time>
      </trkpt>
      <trkpt lat="52.346877" lon="5.875839">
        <ele>27.712760</ele>
        <time>2026-04-13T22:29:57.876Z</time>
      </trkpt>
      <trkpt lat="52.346843" lon="5.874727">
        <ele>27.331697</ele>
        <time>2026-04-13T22:30:10.532Z</time>
      </trkpt>
      <trkpt lat="52.346790" lon="5.874027">
        <ele>27.090286</ele>
        <time>2026-04-13T22:30:18.126Z</time>
      </trkpt>
      <trkpt lat="52.346777" lon="5.873367">
        <ele>26.864280</ele>
        <time>2026-04-13T22:30:24.960Z</time>
      </trkpt>
      <trkpt lat="52.346684" lon="5.872755">
        <ele>26.622549</ele>
        <time>2026-04-13T22:30:31.286Z</time>
      </trkpt>
      <trkpt lat="52.346538" lon="5.872570">
        <ele>26.490068</ele>
        <time>2026-04-13T22:30:34.290Z</time>
      </trkpt>
      <trkpt lat="52.346413" lon="5.872536">
        <ele>26.399144</ele>
        <time>2026-04-13T22:30:36.365Z</time>
      </trkpt>
      <trkpt lat="52.345973" lon="5.872440">
        <ele>26.080630</ele>
        <time>2026-04-13T22:30:43.761Z</time>
      </trkpt>
      <trkpt lat="52.345540" lon="5.872299">
        <ele>25.763842</ele>
        <time>2026-04-13T22:30:51.490Z</time>
      </trkpt>
      <trkpt lat="52.345483" lon="5.872213">
        <ele>25.708219</ele>
        <time>2026-04-13T22:30:52.914Z</time>
      </trkpt>
      <trkpt lat="52.345367" lon="5.871926">
        <ele>25.557369</ele>
        <time>2026-04-13T22:30:56.853Z</time>
      </trkpt>
      <trkpt lat="52.345255" lon="5.871793">
        <ele>25.458083</ele>
        <time>2026-04-13T22:30:59.575Z</time>
      </trkpt>
      <trkpt lat="52.345093" lon="5.871717">
        <ele>25.516217</ele>
        <time>2026-04-13T22:31:02.971Z</time>
      </trkpt>
      <trkpt lat="52.345052" lon="5.871578">
        <ele>25.555892</ele>
        <time>2026-04-13T22:31:04.909Z</time>
      </trkpt>
      <trkpt lat="52.344851" lon="5.870275">
        <ele>25.901331</ele>
        <time>2026-04-13T22:31:22.690Z</time>
      </trkpt>
      <trkpt lat="52.344516" lon="5.868721">
        <ele>26.236967</ele>
        <time>2026-04-13T22:31:44.002Z</time>
      </trkpt>
      <trkpt lat="52.343800" lon="5.865971">
        <ele>26.389403</ele>
        <time>2026-04-13T22:32:18.392Z</time>
      </trkpt>
      <trkpt lat="52.343349" lon="5.864266">
        <ele>26.350383</ele>
        <time>2026-04-13T22:32:39.739Z</time>
      </trkpt>
      <trkpt lat="52.342788" lon="5.862139">
        <ele>25.892525</ele>
        <time>2026-04-13T22:33:05.773Z</time>
      </trkpt>
      <trkpt lat="52.342754" lon="5.862165">
        <ele>25.876749</ele>
        <time>2026-04-13T22:33:06.914Z</time>
      </trkpt>
      <trkpt lat="52.342320" lon="5.860473">
        <ele>25.180951</ele>
        <time>2026-04-13T22:33:27.211Z</time>
      </trkpt>
      <trkpt lat="52.341444" lon="5.856983">
        <ele>23.189039</ele>
        <time>2026-04-13T22:34:07.380Z</time>
      </trkpt>
      <trkpt lat="52.341415" lon="5.856863">
        <ele>23.131547</ele>
        <time>2026-04-13T22:34:08.795Z</time>
      </trkpt>
      <trkpt lat="52.339993" lon="5.851077">
        <ele>21.800322</ele>
        <time>2026-04-13T22:35:21.074Z</time>
      </trkpt>
      <trkpt lat="52.339730" lon="5.850077">
        <ele>21.730082</ele>
        <time>2026-04-13T22:35:34.677Z</time>
      </trkpt>
      <trkpt lat="52.337969" lon="5.844828">
        <ele>22.402953</ele>
        <time>2026-04-13T22:36:51.249Z</time>
      </trkpt>
      <trkpt lat="52.337683" lon="5.843981">
        <ele>22.389731</ele>
        <time>2026-04-13T22:37:02.556Z</time>
      </trkpt>
      <trkpt lat="52.337490" lon="5.843432">
        <ele>22.381077</ele>
        <time>2026-04-13T22:37:09.920Z</time>
      </trkpt>
      <trkpt lat="52.337212" lon="5.842631">
        <ele>22.368491</ele>
        <time>2026-04-13T22:37:20.758Z</time>
      </trkpt>
      <trkpt lat="52.336540" lon="5.840663">
        <ele>23.728773</ele>
        <time>2026-04-13T22:37:52.399Z</time>
      </trkpt>
      <trkpt lat="52.335666" lon="5.841674">
        <ele>25.341863</ele>
        <time>2026-04-13T22:38:36.654Z</time>
      </trkpt>
      <trkpt lat="52.334798" lon="5.842659">
        <ele>27.384169</ele>
        <time>2026-04-13T22:39:20.949Z</time>
      </trkpt>
      <trkpt lat="52.333046" lon="5.844681">
        <ele>29.533281</ele>
        <time>2026-04-13T22:40:37.216Z</time>
      </trkpt>
      <trkpt lat="52.332113" lon="5.845738">
        <ele>30.235611</ele>
        <time>2026-04-13T22:41:16.573Z</time>
      </trkpt>
      <trkpt lat="52.331726" lon="5.846199">
        <ele>30.531873</ele>
        <time>2026-04-13T22:41:35.636Z</time>
      </trkpt>
      <trkpt lat="52.331028" lon="5.847001">
        <ele>30.685340</ele>
        <time>2026-04-13T22:42:08.505Z</time>
      </trkpt>
      <trkpt lat="52.330990" lon="5.847091">
        <ele>30.695763</ele>
        <time>2026-04-13T22:42:11.030Z</time>
      </trkpt>
      <trkpt lat="52.330941" lon="5.847309">
        <ele>30.717895</ele>
        <time>2026-04-13T22:42:16.328Z</time>
      </trkpt>
      <trkpt lat="52.330763" lon="5.848708">
        <ele>30.856153</ele>
        <time>2026-04-13T22:42:48.418Z</time>
      </trkpt>
      <trkpt lat="52.330568" lon="5.848745">
        <ele>30.891234</ele>
        <time>2026-04-13T22:42:54.585Z</time>
      </trkpt>
      <trkpt lat="52.329397" lon="5.848723">
        <ele>31.100514</ele>
        <time>2026-04-13T22:43:32.293Z</time>
      </trkpt>
      <trkpt lat="52.329338" lon="5.848772">
        <ele>31.112338</ele>
        <time>2026-04-13T22:43:34.528Z</time>
      </trkpt>
      <trkpt lat="52.328874" lon="5.849618">
        <ele>31.666631</ele>
        <time>2026-04-13T22:43:58.310Z</time>
      </trkpt>
      <trkpt lat="52.328735" lon="5.847067">
        <ele>33.808202</ele>
        <time>2026-04-13T22:44:57.684Z</time>
      </trkpt>
      <trkpt lat="52.328662" lon="5.846170">
        <ele>35.250388</ele>
        <time>2026-04-13T22:45:21.204Z</time>
      </trkpt>
      <trkpt lat="52.327966" lon="5.844710">
        <ele>38.242330</ele>
        <time>2026-04-13T22:46:11.988Z</time>
      </trkpt>
      <trkpt lat="52.327545" lon="5.844019">
        <ele>40.126266</ele>
        <time>2026-04-13T22:46:40.813Z</time>
      </trkpt>
      <trkpt lat="52.327488" lon="5.843842">
        <ele>40.512567</ele>
        <time>2026-04-13T22:46:46.952Z</time>
      </trkpt>
      <trkpt lat="52.327470" lon="5.843783">
        <ele>40.639891</ele>
        <time>2026-04-13T22:46:48.924Z</time>
      </trkpt>
      <trkpt lat="52.327322" lon="5.843708">
        <ele>41.129387</ele>
        <time>2026-04-13T22:46:56.510Z</time>
      </trkpt>
      <trkpt lat="52.327122" lon="5.843631">
        <ele>41.778514</ele>
        <time>2026-04-13T22:47:06.307Z</time>
      </trkpt>
      <trkpt lat="52.326622" lon="5.843421">
        <ele>43.409402</ele>
        <time>2026-04-13T22:47:29.840Z</time>
      </trkpt>
      <trkpt lat="52.326049" lon="5.843064">
        <ele>44.107735</ele>
        <time>2026-04-13T22:47:54.748Z</time>
      </trkpt>
      <trkpt lat="52.325417" lon="5.842288">
        <ele>44.736638</ele>
        <time>2026-04-13T22:48:20.680Z</time>
      </trkpt>
      <trkpt lat="52.325294" lon="5.842196">
        <ele>44.844280</ele>
        <time>2026-04-13T22:48:24.846Z</time>
      </trkpt>
      <trkpt lat="52.325176" lon="5.842176">
        <ele>44.938700</ele>
        <time>2026-04-13T22:48:28.467Z</time>
      </trkpt>
      <trkpt lat="52.324710" lon="5.842032">
        <ele>45.437861</ele>
        <time>2026-04-13T22:48:43.250Z</time>
      </trkpt>
      <trkpt lat="52.324240" lon="5.841835">
        <ele>46.066253</ele>
        <time>2026-04-13T22:48:59.494Z</time>
      </trkpt>
      <trkpt lat="52.323685" lon="5.841559">
        <ele>46.817549</ele>
        <time>2026-04-13T22:49:21.631Z</time>
      </trkpt>
      <trkpt lat="52.323027" lon="5.841179">
        <ele>48.219311</ele>
        <time>2026-04-13T22:49:51.573Z</time>
      </trkpt>
      <trkpt lat="52.320585" lon="5.839236">
        <ele>57.461876</ele>
        <time>2026-04-13T22:52:07.003Z</time>
      </trkpt>
      <trkpt lat="52.320146" lon="5.838909">
        <ele>58.910098</ele>
        <time>2026-04-13T22:52:26.908Z</time>
      </trkpt>
      <trkpt lat="52.319795" lon="5.838749">
        <ele>59.487548</ele>
        <time>2026-04-13T22:52:40.172Z</time>
      </trkpt>
      <trkpt lat="52.319563" lon="5.838582">
        <ele>59.492129</ele>
        <time>2026-04-13T22:52:48.529Z</time>
      </trkpt>
      <trkpt lat="52.318139" lon="5.838247">
        <ele>59.537556</ele>
        <time>2026-04-13T22:53:32.047Z</time>
      </trkpt>
      <trkpt lat="52.313149" lon="5.837123">
        <ele>61.032123</ele>
        <time>2026-04-13T22:56:20.886Z</time>
      </trkpt>
      <trkpt lat="52.312745" lon="5.837013">
        <ele>61.034450</ele>
        <time>2026-04-13T22:56:33.914Z</time>
      </trkpt>
      <trkpt lat="52.312625" lon="5.836951">
        <ele>60.953585</ele>
        <time>2026-04-13T22:56:37.861Z</time>
      </trkpt>
      <trkpt lat="52.312505" lon="5.836839">
        <ele>60.864806</ele>
        <time>2026-04-13T22:56:42.182Z</time>
      </trkpt>
      <trkpt lat="52.311573" lon="5.835716">
        <ele>60.120969</ele>
        <time>2026-04-13T22:57:16.751Z</time>
      </trkpt>
      <trkpt lat="52.311436" lon="5.835484">
        <ele>59.994254</ele>
        <time>2026-04-13T22:57:22.447Z</time>
      </trkpt>
      <trkpt lat="52.311051" lon="5.834660">
        <ele>59.010013</ele>
        <time>2026-04-13T22:57:40.540Z</time>
      </trkpt>
      <trkpt lat="52.310929" lon="5.834556">
        <ele>58.782742</ele>
        <time>2026-04-13T22:57:44.403Z</time>
      </trkpt>
      <trkpt lat="52.310498" lon="5.835016">
        <ele>57.932565</ele>
        <time>2026-04-13T22:57:58.561Z</time>
      </trkpt>
      <trkpt lat="52.310274" lon="5.835183">
        <ele>57.525892</ele>
        <time>2026-04-13T22:58:05.332Z</time>
      </trkpt>
      <trkpt lat="52.309614" lon="5.835331">
        <ele>56.478189</ele>
        <time>2026-04-13T22:58:23.692Z</time>
      </trkpt>
      <trkpt lat="52.308892" lon="5.835328">
        <ele>55.398464</ele>
        <time>2026-04-13T22:58:43.817Z</time>
      </trkpt>
      <trkpt lat="52.308633" lon="5.835458">
        <ele>54.993313</ele>
        <time>2026-04-13T22:58:51.558Z</time>
      </trkpt>
      <trkpt lat="52.308461" lon="5.835643">
        <ele>54.685459</ele>
        <time>2026-04-13T22:58:57.525Z</time>
      </trkpt>
      <trkpt lat="52.307924" lon="5.836551">
        <ele>53.633566</ele>
        <time>2026-04-13T22:59:20.309Z</time>
      </trkpt>
      <trkpt lat="52.307623" lon="5.836982">
        <ele>53.116251</ele>
        <time>2026-04-13T22:59:32.090Z</time>
      </trkpt>
      <trkpt lat="52.307464" lon="5.837332">
        <ele>52.771506</ele>
        <time>2026-04-13T22:59:39.754Z</time>
      </trkpt>
      <trkpt lat="52.307329" lon="5.837860">
        <ele>52.319019</ele>
        <time>2026-04-13T22:59:49.627Z</time>
      </trkpt>
      <trkpt lat="52.306523" lon="5.837586">
        <ele>50.992032</ele>
        <time>2026-04-13T23:00:12.184Z</time>
      </trkpt>
      <trkpt lat="52.305252" lon="5.837083">
        <ele>48.740632</ele>
        <time>2026-04-13T23:00:48.167Z</time>
      </trkpt>
      <trkpt lat="52.306088" lon="5.832702">
        <ele>46.398339</ele>
        <time>2026-04-13T23:02:18.711Z</time>
      </trkpt>
      <trkpt lat="52.305898" lon="5.832510">
        <ele>46.174008</ele>
        <time>2026-04-13T23:02:25.389Z</time>
      </trkpt>
      <trkpt lat="52.305711" lon="5.832371">
        <ele>45.967691</ele>
        <time>2026-04-13T23:02:31.525Z</time>
      </trkpt>
      <trkpt lat="52.305345" lon="5.832204">
        <ele>45.564755</ele>
        <time>2026-04-13T23:02:42.859Z</time>
      </trkpt>
      <trkpt lat="52.305267" lon="5.832074">
        <ele>45.422401</ele>
        <time>2026-04-13T23:02:46.157Z</time>
      </trkpt>
      <trkpt lat="52.305229" lon="5.831955">
        <ele>45.317472</ele>
        <time>2026-04-13T23:02:48.603Z</time>
      </trkpt>
      <trkpt lat="52.305152" lon="5.831547">
        <ele>44.983737</ele>
        <time>2026-04-13T23:02:56.353Z</time>
      </trkpt>
      <trkpt lat="52.305168" lon="5.831423">
        <ele>44.884685</ele>
        <time>2026-04-13T23:02:58.657Z</time>
      </trkpt>
      <trkpt lat="52.305227" lon="5.831155">
        <ele>44.662055</ele>
        <time>2026-04-13T23:03:03.886Z</time>
      </trkpt>
      <trkpt lat="52.304796" lon="5.830745">
        <ele>44.024708</ele>
        <time>2026-04-13T23:03:19.300Z</time>
      </trkpt>
      <trkpt lat="52.304745" lon="5.830050">
        <ele>43.477598</ele>
        <time>2026-04-13T23:03:32.855Z</time>
      </trkpt>
      <trkpt lat="52.304705" lon="5.829782">
        <ele>43.288113</ele>
        <time>2026-04-13T23:03:38.142Z</time>
      </trkpt>
      <trkpt lat="52.304699" lon="5.829417">
        <ele>43.075148</ele>
        <time>2026-04-13T23:03:45.100Z</time>
      </trkpt>
      <trkpt lat="52.304640" lon="5.829171">
        <ele>42.921025</ele>
        <time>2026-04-13T23:03:50.127Z</time>
      </trkpt>
      <trkpt lat="52.304601" lon="5.828795">
        <ele>42.698587</ele>
        <time>2026-04-13T23:03:57.323Z</time>
      </trkpt>
      <trkpt lat="52.304469" lon="5.828076">
        <ele>42.260731</ele>
        <time>2026-04-13T23:04:11.565Z</time>
      </trkpt>
      <trkpt lat="52.304404" lon="5.827261">
        <ele>41.781349</ele>
        <time>2026-04-13T23:04:27.349Z</time>
      </trkpt>
      <trkpt lat="52.304332" lon="5.826939">
        <ele>41.564320</ele>
        <time>2026-04-13T23:04:33.975Z</time>
      </trkpt>
      <trkpt lat="52.304213" lon="5.825950">
        <ele>40.828773</ele>
        <time>2026-04-13T23:04:53.408Z</time>
      </trkpt>
      <trkpt lat="52.303973" lon="5.825159">
        <ele>40.184396</ele>
        <time>2026-04-13T23:05:10.038Z</time>
      </trkpt>
      <trkpt lat="52.303950" lon="5.825005">
        <ele>40.068712</ele>
        <time>2026-04-13T23:05:12.990Z</time>
      </trkpt>
      <trkpt lat="52.303935" lon="5.824378">
        <ele>39.610815</ele>
        <time>2026-04-13T23:05:24.498Z</time>
      </trkpt>
      <trkpt lat="52.304049" lon="5.823786">
        <ele>39.177140</ele>
        <time>2026-04-13T23:05:50.910Z</time>
      </trkpt>
      <trkpt lat="52.304054" lon="5.823527">
        <ele>38.998596</ele>
        <time>2026-04-13T23:06:01.913Z</time>
      </trkpt>
      <trkpt lat="52.303963" lon="5.823062">
        <ele>38.662195</ele>
        <time>2026-04-13T23:06:22.654Z</time>
      </trkpt>
      <trkpt lat="52.303811" lon="5.822461">
        <ele>38.214073</ele>
        <time>2026-04-13T23:06:50.273Z</time>
      </trkpt>
      <trkpt lat="52.303662" lon="5.821251">
        <ele>37.485411</ele>
        <time>2026-04-13T23:07:42.745Z</time>
      </trkpt>
      <trkpt lat="52.303463" lon="5.819638">
        <ele>37.580015</ele>
        <time>2026-04-13T23:08:52.678Z</time>
      </trkpt>
      <trkpt lat="52.303384" lon="5.819343">
        <ele>37.598531</ele>
        <time>2026-04-13T23:09:06.377Z</time>
      </trkpt>
      <trkpt lat="52.303287" lon="5.818838">
        <ele>37.628964</ele>
        <time>2026-04-13T23:09:28.876Z</time>
      </trkpt>
      <trkpt lat="52.303076" lon="5.818112">
        <ele>37.976711</ele>
        <time>2026-04-13T23:10:03.011Z</time>
      </trkpt>
      <trkpt lat="52.303009" lon="5.817717">
        <ele>38.236888</ele>
        <time>2026-04-13T23:10:20.462Z</time>
      </trkpt>
      <trkpt lat="52.303020" lon="5.817527">
        <ele>38.358022</ele>
        <time>2026-04-13T23:10:28.543Z</time>
      </trkpt>
      <trkpt lat="52.303111" lon="5.817216">
        <ele>38.576852</ele>
        <time>2026-04-13T23:10:43.200Z</time>
      </trkpt>
      <trkpt lat="52.303341" lon="5.816163">
        <ele>39.286557</ele>
        <time>2026-04-13T23:11:30.751Z</time>
      </trkpt>
      <trkpt lat="52.303362" lon="5.815692">
        <ele>39.480451</ele>
        <time>2026-04-13T23:11:50.796Z</time>
      </trkpt>
      <trkpt lat="52.303464" lon="5.815333">
        <ele>39.373273</ele>
        <time>2026-04-13T23:11:59.763Z</time>
      </trkpt>
      <trkpt lat="52.303501" lon="5.815032">
        <ele>39.290149</ele>
        <time>2026-04-13T23:12:06.437Z</time>
      </trkpt>
      <trkpt lat="52.303623" lon="5.814503">
        <ele>39.137077</ele>
        <time>2026-04-13T23:12:18.068Z</time>
      </trkpt>
      <trkpt lat="52.303649" lon="5.814280">
        <ele>39.075614</ele>
        <time>2026-04-13T23:12:22.557Z</time>
      </trkpt>
      <trkpt lat="52.303332" lon="5.813836">
        <ele>38.890814</ele>
        <time>2026-04-13T23:12:36.801Z</time>
      </trkpt>
      <trkpt lat="52.302958" lon="5.813479">
        <ele>38.688637</ele>
        <time>2026-04-13T23:12:51.113Z</time>
      </trkpt>
      <trkpt lat="52.302911" lon="5.813325">
        <ele>38.612813</ele>
        <time>2026-04-13T23:12:54.591Z</time>
      </trkpt>
      <trkpt lat="52.302622" lon="5.813139">
        <ele>38.389059</ele>
        <time>2026-04-13T23:13:04.816Z</time>
      </trkpt>
      <trkpt lat="52.302561" lon="5.813056">
        <ele>38.331889</ele>
        <time>2026-04-13T23:13:07.042Z</time>
      </trkpt>
      <trkpt lat="52.302346" lon="5.812194">
        <ele>37.921761</ele>
        <time>2026-04-13T23:13:23.344Z</time>
      </trkpt>
      <trkpt lat="52.302112" lon="5.811286">
        <ele>37.487667</ele>
        <time>2026-04-13T23:13:42.079Z</time>
      </trkpt>
      <trkpt lat="52.301856" lon="5.810289">
        <ele>38.112446</ele>
        <time>2026-04-13T23:14:07.221Z</time>
      </trkpt>
      <trkpt lat="52.301455" lon="5.809564">
        <ele>38.842417</ele>
        <time>2026-04-13T23:14:30.555Z</time>
      </trkpt>
      <trkpt lat="52.301394" lon="5.809394">
        <ele>38.989601</ele>
        <time>2026-04-13T23:14:35.241Z</time>
      </trkpt>
      <trkpt lat="52.301376" lon="5.809233">
        <ele>39.111816</ele>
        <time>2026-04-13T23:14:39.308Z</time>
      </trkpt>
      <trkpt lat="52.301166" lon="5.808798">
        <ele>39.525664</ele>
        <time>2026-04-13T23:14:52.999Z</time>
      </trkpt>
      <trkpt lat="52.301111" lon="5.808571">
        <ele>39.638264</ele>
        <time>2026-04-13T23:14:58.879Z</time>
      </trkpt>
      <trkpt lat="52.301121" lon="5.808250">
        <ele>39.695869</ele>
        <time>2026-04-13T23:15:06.337Z</time>
      </trkpt>
      <trkpt lat="52.301177" lon="5.807746">
        <ele>39.787676</ele>
        <time>2026-04-13T23:15:17.492Z</time>
      </trkpt>
      <trkpt lat="52.301313" lon="5.807022">
        <ele>39.923418</ele>
        <time>2026-04-13T23:15:33.437Z</time>
      </trkpt>
      <trkpt lat="52.301324" lon="5.806303">
        <ele>40.052319</ele>
        <time>2026-04-13T23:15:48.126Z</time>
      </trkpt>
      <trkpt lat="52.301323" lon="5.806103">
        <ele>40.088164</ele>
        <time>2026-04-13T23:15:51.953Z</time>
      </trkpt>
      <trkpt lat="52.301194" lon="5.806111">
        <ele>40.125999</ele>
        <time>2026-04-13T23:15:54.292Z</time>
      </trkpt>
      <trkpt lat="52.301042" lon="5.806067">
        <ele>40.140249</ele>
        <time>2026-04-13T23:15:57.103Z</time>
      </trkpt>
      <trkpt lat="52.300511" lon="5.805625">
        <ele>40.120536</ele>
        <time>2026-04-13T23:16:07.911Z</time>
      </trkpt>
      <trkpt lat="52.299825" lon="5.804747">
        <ele>40.091713</ele>
        <time>2026-04-13T23:16:24.737Z</time>
      </trkpt>
      <trkpt lat="52.299014" lon="5.803648">
        <ele>39.509084</ele>
        <time>2026-04-13T23:16:44.606Z</time>
      </trkpt>
      <trkpt lat="52.298305" lon="5.802509">
        <ele>38.799093</ele>
        <time>2026-04-13T23:17:00.860Z</time>
      </trkpt>
      <trkpt lat="52.298041" lon="5.801979">
        <ele>38.139222</ele>
        <time>2026-04-13T23:17:07.261Z</time>
      </trkpt>
      <trkpt lat="52.297951" lon="5.801669">
        <ele>37.807954</ele>
        <time>2026-04-13T23:17:10.439Z</time>
      </trkpt>
      <trkpt lat="52.297680" lon="5.801653">
        <ele>37.379897</ele>
        <time>2026-04-13T23:17:14.840Z</time>
      </trkpt>
      <trkpt lat="52.297386" lon="5.801120">
        <ele>36.686989</ele>
        <time>2026-04-13T23:17:20.870Z</time>
      </trkpt>
      <trkpt lat="52.296878" lon="5.800020">
        <ele>35.662641</ele>
        <time>2026-04-13T23:17:33.260Z</time>
      </trkpt>
      <trkpt lat="52.296694" lon="5.799521">
        <ele>35.376992</ele>
        <time>2026-04-13T23:17:38.668Z</time>
      </trkpt>
      <trkpt lat="52.296610" lon="5.799218">
        <ele>35.213902</ele>
        <time>2026-04-13T23:17:41.825Z</time>
      </trkpt>
      <trkpt lat="52.296516" lon="5.798631">
        <ele>34.916434</ele>
        <time>2026-04-13T23:17:47.641Z</time>
      </trkpt>
      <trkpt lat="52.296441" lon="5.798273">
        <ele>34.730918</ele>
        <time>2026-04-13T23:17:51.352Z</time>
      </trkpt>
      <trkpt lat="52.295727" lon="5.795858">
        <ele>33.799552</ele>
        <time>2026-04-13T23:18:16.863Z</time>
      </trkpt>
      <trkpt lat="52.295664" lon="5.795640">
        <ele>33.721802</ele>
        <time>2026-04-13T23:18:19.208Z</time>
      </trkpt>
      <trkpt lat="52.295402" lon="5.794772">
        <ele>33.553096</ele>
        <time>2026-04-13T23:18:28.783Z</time>
      </trkpt>
      <trkpt lat="52.295001" lon="5.793452">
        <ele>33.458893</ele>
        <time>2026-04-13T23:18:44.493Z</time>
      </trkpt>
      <trkpt lat="52.294602" lon="5.792389">
        <ele>33.334884</ele>
        <time>2026-04-13T23:18:57.240Z</time>
      </trkpt>
      <trkpt lat="52.294201" lon="5.791363">
        <ele>33.096040</ele>
        <time>2026-04-13T23:19:09.399Z</time>
      </trkpt>
      <trkpt lat="52.294081" lon="5.791123">
        <ele>33.035231</ele>
        <time>2026-04-13T23:19:12.436Z</time>
      </trkpt>
      <trkpt lat="52.293919" lon="5.790871">
        <ele>32.963515</ele>
        <time>2026-04-13T23:19:15.971Z</time>
      </trkpt>
      <trkpt lat="52.293360" lon="5.790170">
        <ele>32.794061</ele>
        <time>2026-04-13T23:19:27.201Z</time>
      </trkpt>
      <trkpt lat="52.293130" lon="5.789930">
        <ele>32.763944</ele>
        <time>2026-04-13T23:19:33.281Z</time>
      </trkpt>
      <trkpt lat="52.292885" lon="5.789785">
        <ele>32.735185</ele>
        <time>2026-04-13T23:19:39.143Z</time>
      </trkpt>
      <trkpt lat="52.292735" lon="5.789733">
        <ele>32.718260</ele>
        <time>2026-04-13T23:19:42.659Z</time>
      </trkpt>
      <trkpt lat="52.291960" lon="5.789524">
        <ele>32.631562</ele>
        <time>2026-04-13T23:20:01.325Z</time>
      </trkpt>
      <trkpt lat="52.291513" lon="5.789409">
        <ele>32.767073</ele>
        <time>2026-04-13T23:20:12.180Z</time>
      </trkpt>
      <trkpt lat="52.291302" lon="5.789301">
        <ele>32.846570</ele>
        <time>2026-04-13T23:20:17.596Z</time>
      </trkpt>
      <trkpt lat="52.291144" lon="5.789004">
        <ele>32.933136</ele>
        <time>2026-04-13T23:20:23.557Z</time>
      </trkpt>
      <trkpt lat="52.291014" lon="5.788661">
        <ele>33.021878</ele>
        <time>2026-04-13T23:20:29.827Z</time>
      </trkpt>
      <trkpt lat="52.290924" lon="5.788639">
        <ele>33.054597</ele>
        <time>2026-04-13T23:20:32.425Z</time>
      </trkpt>
      <trkpt lat="52.290734" lon="5.788506">
        <ele>33.128912</ele>
        <time>2026-04-13T23:20:38.320Z</time>
      </trkpt>
      <trkpt lat="52.290750" lon="5.788352">
        <ele>33.163265</ele>
        <time>2026-04-13T23:20:41.026Z</time>
      </trkpt>
      <trkpt lat="52.290557" lon="5.788381">
        <ele>33.232952</ele>
        <time>2026-04-13T23:20:45.913Z</time>
      </trkpt>
      <trkpt lat="52.290033" lon="5.788262">
        <ele>33.386451</ele>
        <time>2026-04-13T23:20:59.294Z</time>
      </trkpt>
      <trkpt lat="52.289943" lon="5.788246">
        <ele>33.411102</ele>
        <time>2026-04-13T23:21:01.578Z</time>
      </trkpt>
      <trkpt lat="52.289698" lon="5.788198">
        <ele>33.478290</ele>
        <time>2026-04-13T23:21:06.260Z</time>
      </trkpt>
      <trkpt lat="52.289533" lon="5.788167">
        <ele>33.523513</ele>
        <time>2026-04-13T23:21:09.410Z</time>
      </trkpt>
      <trkpt lat="52.289432" lon="5.788148">
        <ele>33.551196</ele>
        <time>2026-04-13T23:21:11.326Z</time>
      </trkpt>
      <trkpt lat="52.289245" lon="5.788113">
        <ele>33.602446</ele>
        <time>2026-04-13T23:21:14.764Z</time>
      </trkpt>
      <trkpt lat="52.289065" lon="5.788080">
        <ele>33.651765</ele>
        <time>2026-04-13T23:21:17.955Z</time>
      </trkpt>
      <trkpt lat="52.288378" lon="5.787947">
        <ele>33.751759</ele>
        <time>2026-04-13T23:21:29.777Z</time>
      </trkpt>
      <trkpt lat="52.288094" lon="5.787880">
        <ele>33.741926</ele>
        <time>2026-04-13T23:21:34.456Z</time>
      </trkpt>
      <trkpt lat="52.287429" lon="5.787743">
        <ele>33.718957</ele>
        <time>2026-04-13T23:21:45.880Z</time>
      </trkpt>
      <trkpt lat="52.287289" lon="5.787645">
        <ele>33.713738</ele>
        <time>2026-04-13T23:21:48.450Z</time>
      </trkpt>
      <trkpt lat="52.287152" lon="5.787616">
        <ele>33.709003</ele>
        <time>2026-04-13T23:21:50.758Z</time>
      </trkpt>
      <trkpt lat="52.287147" lon="5.787711">
        <ele>33.707005</ele>
        <time>2026-04-13T23:21:51.924Z</time>
      </trkpt>
      <trkpt lat="52.287140" lon="5.787854">
        <ele>33.703997</ele>
        <time>2026-04-13T23:21:53.421Z</time>
      </trkpt>
      <trkpt lat="52.287049" lon="5.788343">
        <ele>33.707838</ele>
        <time>2026-04-13T23:21:58.775Z</time>
      </trkpt>
      <trkpt lat="52.287022" lon="5.788461">
        <ele>33.710920</ele>
        <time>2026-04-13T23:22:00.104Z</time>
      </trkpt>
      <trkpt lat="52.286986" lon="5.788515">
        <ele>33.712874</ele>
        <time>2026-04-13T23:22:00.944Z</time>
      </trkpt>
      <trkpt lat="52.287022" lon="5.788461">
        <ele>33.714828</ele>
        <time>2026-04-13T23:22:01.770Z</time>
      </trkpt>
      <trkpt lat="52.287049" lon="5.788343">
        <ele>33.717909</ele>
        <time>2026-04-13T23:22:03.088Z</time>
      </trkpt>
      <trkpt lat="52.287140" lon="5.787854">
        <ele>33.730412</ele>
        <time>2026-04-13T23:22:08.490Z</time>
      </trkpt>
      <trkpt lat="52.287315" lon="5.787857">
        <ele>33.737410</ele>
        <time>2026-04-13T23:22:11.739Z</time>
      </trkpt>
      <trkpt lat="52.287429" lon="5.787743">
        <ele>33.742754</ele>
        <time>2026-04-13T23:22:14.125Z</time>
      </trkpt>
      <trkpt lat="52.288094" lon="5.787880">
        <ele>33.769557</ele>
        <time>2026-04-13T23:22:25.648Z</time>
      </trkpt>
      <trkpt lat="52.288378" lon="5.787947">
        <ele>33.736761</ele>
        <time>2026-04-13T23:22:30.742Z</time>
      </trkpt>
      <trkpt lat="52.289065" lon="5.788080">
        <ele>33.629942</ele>
        <time>2026-04-13T23:22:42.539Z</time>
      </trkpt>
      <trkpt lat="52.289245" lon="5.788113">
        <ele>33.601975</ele>
        <time>2026-04-13T23:22:45.570Z</time>
      </trkpt>
      <trkpt lat="52.289432" lon="5.788148">
        <ele>33.572912</ele>
        <time>2026-04-13T23:22:48.677Z</time>
      </trkpt>
      <trkpt lat="52.289533" lon="5.788167">
        <ele>33.557214</ele>
        <time>2026-04-13T23:22:50.312Z</time>
      </trkpt>
      <trkpt lat="52.289698" lon="5.788198">
        <ele>33.531569</ele>
        <time>2026-04-13T23:22:52.990Z</time>
      </trkpt>
      <trkpt lat="52.289943" lon="5.788246">
        <ele>33.492261</ele>
        <time>2026-04-13T23:22:56.918Z</time>
      </trkpt>
      <trkpt lat="52.290033" lon="5.788262">
        <ele>33.455234</ele>
        <time>2026-04-13T23:22:58.904Z</time>
      </trkpt>
      <trkpt lat="52.290557" lon="5.788381">
        <ele>33.238859</ele>
        <time>2026-04-13T23:23:10.483Z</time>
      </trkpt>
      <trkpt lat="52.290637" lon="5.788488">
        <ele>33.196584</ele>
        <time>2026-04-13T23:23:13.091Z</time>
      </trkpt>
      <trkpt lat="52.290734" lon="5.788506">
        <ele>33.156656</ele>
        <time>2026-04-13T23:23:15.560Z</time>
      </trkpt>
      <trkpt lat="52.290924" lon="5.788639">
        <ele>33.072123</ele>
        <time>2026-04-13T23:23:20.756Z</time>
      </trkpt>
      <trkpt lat="52.291014" lon="5.788661">
        <ele>33.034903</ele>
        <time>2026-04-13T23:23:23.029Z</time>
      </trkpt>
      <trkpt lat="52.291144" lon="5.789004">
        <ele>32.933958</ele>
        <time>2026-04-13T23:23:28.429Z</time>
      </trkpt>
      <trkpt lat="52.291302" lon="5.789301">
        <ele>32.835487</ele>
        <time>2026-04-13T23:23:33.740Z</time>
      </trkpt>
      <trkpt lat="52.291513" lon="5.789409">
        <ele>32.757148</ele>
        <time>2026-04-13T23:23:38.694Z</time>
      </trkpt>
      <trkpt lat="52.291960" lon="5.789524">
        <ele>32.737909</ele>
        <time>2026-04-13T23:23:48.895Z</time>
      </trkpt>
      <trkpt lat="52.292735" lon="5.789733">
        <ele>32.704512</ele>
        <time>2026-04-13T23:24:06.799Z</time>
      </trkpt>
      <trkpt lat="52.292885" lon="5.789785">
        <ele>32.697993</ele>
        <time>2026-04-13T23:24:10.416Z</time>
      </trkpt>
      <trkpt lat="52.293130" lon="5.789930">
        <ele>32.686915</ele>
        <time>2026-04-13T23:24:16.723Z</time>
      </trkpt>
      <trkpt lat="52.293360" lon="5.790170">
        <ele>32.737890</ele>
        <time>2026-04-13T23:24:23.435Z</time>
      </trkpt>
      <trkpt lat="52.293919" lon="5.790871">
        <ele>32.985090</ele>
        <time>2026-04-13T23:24:36.909Z</time>
      </trkpt>
      <trkpt lat="52.294081" lon="5.791123">
        <ele>33.063551</ele>
        <time>2026-04-13T23:24:41.235Z</time>
      </trkpt>
      <trkpt lat="52.294201" lon="5.791363">
        <ele>33.130079</ele>
        <time>2026-04-13T23:24:44.865Z</time>
      </trkpt>
      <trkpt lat="52.294602" lon="5.792389">
        <ele>33.335825</ele>
        <time>2026-04-13T23:24:58.534Z</time>
      </trkpt>
      <trkpt lat="52.295001" lon="5.793452">
        <ele>33.413255</ele>
        <time>2026-04-13T23:25:12.083Z</time>
      </trkpt>
      <trkpt lat="52.295402" lon="5.794772">
        <ele>33.534764</ele>
        <time>2026-04-13T23:25:27.313Z</time>
      </trkpt>
      <trkpt lat="52.295664" lon="5.795640">
        <ele>33.795898</ele>
        <time>2026-04-13T23:25:38.361Z</time>
      </trkpt>
      <trkpt lat="52.295727" lon="5.795858">
        <ele>33.860944</ele>
        <time>2026-04-13T23:25:41.196Z</time>
      </trkpt>
      <trkpt lat="52.296441" lon="5.798273">
        <ele>34.794666</ele>
        <time>2026-04-13T23:26:13.938Z</time>
      </trkpt>
      <trkpt lat="52.296516" lon="5.798631">
        <ele>34.969357</ele>
        <time>2026-04-13T23:26:18.338Z</time>
      </trkpt>
      <trkpt lat="52.296610" lon="5.799218">
        <ele>35.249468</ele>
        <time>2026-04-13T23:26:25.619Z</time>
      </trkpt>
      <trkpt lat="52.296694" lon="5.799521">
        <ele>35.403041</ele>
        <time>2026-04-13T23:26:29.714Z</time>
      </trkpt>
      <trkpt lat="52.296878" lon="5.800020">
        <ele>35.707615</ele>
        <time>2026-04-13T23:26:37.124Z</time>
      </trkpt>
      <trkpt lat="52.297386" lon="5.801120">
        <ele>37.243089</ele>
        <time>2026-04-13T23:26:57.761Z</time>
      </trkpt>
      <trkpt lat="52.297680" lon="5.801653">
        <ele>38.042648</ele>
        <time>2026-04-13T23:27:10.120Z</time>
      </trkpt>
      <trkpt lat="52.297631" lon="5.801700">
        <ele>38.146123</ele>
        <time>2026-04-13T23:27:11.870Z</time>
      </trkpt>
      <trkpt lat="52.297550" lon="5.801967">
        <ele>38.478129</ele>
        <time>2026-04-13T23:27:17.446Z</time>
      </trkpt>
      <trkpt lat="52.297476" lon="5.802169">
        <ele>38.740428</ele>
        <time>2026-04-13T23:27:24.212Z</time>
      </trkpt>
      <trkpt lat="52.297379" lon="5.802221">
        <ele>38.925341</ele>
        <time>2026-04-13T23:27:26.906Z</time>
      </trkpt>
      <trkpt lat="52.297293" lon="5.802408">
        <ele>39.106185</ele>
        <time>2026-04-13T23:27:30.679Z</time>
      </trkpt>
      <trkpt lat="52.297235" lon="5.802633">
        <ele>39.294910</ele>
        <time>2026-04-13T23:27:34.559Z</time>
      </trkpt>
      <trkpt lat="52.297169" lon="5.803157">
        <ele>39.708424</ele>
        <time>2026-04-13T23:27:42.853Z</time>
      </trkpt>
      <trkpt lat="52.297201" lon="5.804428">
        <ele>40.691643</ele>
        <time>2026-04-13T23:27:59.895Z</time>
      </trkpt>
      <trkpt lat="52.297240" lon="5.805265">
        <ele>41.223573</ele>
        <time>2026-04-13T23:28:09.802Z</time>
      </trkpt>
      <trkpt lat="52.297233" lon="5.805604">
        <ele>41.273276</ele>
        <time>2026-04-13T23:28:13.682Z</time>
      </trkpt>
      <trkpt lat="52.297272" lon="5.806142">
        <ele>41.352662</ele>
        <time>2026-04-13T23:28:19.765Z</time>
      </trkpt>
      <trkpt lat="52.297251" lon="5.807973">
        <ele>41.621011</ele>
        <time>2026-04-13T23:28:38.878Z</time>
      </trkpt>
      <trkpt lat="52.297345" lon="5.808569">
        <ele>41.942813</ele>
        <time>2026-04-13T23:28:45.910Z</time>
      </trkpt>
      <trkpt lat="52.297412" lon="5.809515">
        <ele>42.467074</ele>
        <time>2026-04-13T23:28:58.623Z</time>
      </trkpt>
      <trkpt lat="52.297580" lon="5.810473">
        <ele>43.015713</ele>
        <time>2026-04-13T23:29:13.320Z</time>
      </trkpt>
      <trkpt lat="52.297683" lon="5.811425">
        <ele>43.185784</ele>
        <time>2026-04-13T23:29:26.281Z</time>
      </trkpt>
      <trkpt lat="52.297911" lon="5.812145">
        <ele>43.096296</ele>
        <time>2026-04-13T23:29:34.562Z</time>
      </trkpt>
      <trkpt lat="52.298217" lon="5.813610">
        <ele>42.925434</ele>
        <time>2026-04-13T23:29:48.877Z</time>
      </trkpt>
      <trkpt lat="52.298504" lon="5.815232">
        <ele>42.533609</ele>
        <time>2026-04-13T23:30:04.865Z</time>
      </trkpt>
      <trkpt lat="52.298511" lon="5.815670">
        <ele>42.430833</ele>
        <time>2026-04-13T23:30:09.404Z</time>
      </trkpt>
      <trkpt lat="52.298547" lon="5.816001">
        <ele>42.351973</ele>
        <time>2026-04-13T23:30:12.916Z</time>
      </trkpt>
      <trkpt lat="52.298715" lon="5.816476">
        <ele>42.248541</ele>
        <time>2026-04-13T23:30:18.634Z</time>
      </trkpt>
      <trkpt lat="52.298829" lon="5.816956">
        <ele>42.486966</ele>
        <time>2026-04-13T23:30:24.141Z</time>
      </trkpt>
      <trkpt lat="52.298870" lon="5.817250">
        <ele>42.626590</ele>
        <time>2026-04-13T23:30:27.491Z</time>
      </trkpt>
      <trkpt lat="52.298980" lon="5.818115">
        <ele>43.035673</ele>
        <time>2026-04-13T23:30:38.313Z</time>
      </trkpt>
      <trkpt lat="52.299038" lon="5.818877">
        <ele>43.391219</ele>
        <time>2026-04-13T23:30:48.938Z</time>
      </trkpt>
      <trkpt lat="52.299088" lon="5.819085">
        <ele>43.494701</ele>
        <time>2026-04-13T23:30:52.135Z</time>
      </trkpt>
      <trkpt lat="52.299128" lon="5.820093">
        <ele>44.625415</ele>
        <time>2026-04-13T23:31:06.516Z</time>
      </trkpt>
      <trkpt lat="52.299182" lon="5.820784">
        <ele>45.527795</ele>
        <time>2026-04-13T23:31:17.217Z</time>
      </trkpt>
      <trkpt lat="52.299298" lon="5.821550">
        <ele>46.550018</ele>
        <time>2026-04-13T23:31:31.321Z</time>
      </trkpt>
      <trkpt lat="52.299410" lon="5.823637">
        <ele>49.864707</ele>
        <time>2026-04-13T23:32:14.741Z</time>
      </trkpt>
      <trkpt lat="52.299426" lon="5.824141">
        <ele>50.729602</ele>
        <time>2026-04-13T23:32:24.992Z</time>
      </trkpt>
      <trkpt lat="52.299387" lon="5.825377">
        <ele>52.609460</ele>
        <time>2026-04-13T23:32:47.524Z</time>
      </trkpt>
      <trkpt lat="52.299449" lon="5.825361">
        <ele>52.681037</ele>
        <time>2026-04-13T23:32:50.251Z</time>
      </trkpt>
      <trkpt lat="52.299457" lon="5.825633">
        <ele>52.870941</ele>
        <time>2026-04-13T23:32:56.746Z</time>
      </trkpt>
      <trkpt lat="52.299889" lon="5.832415">
        <ele>57.591466</ele>
        <time>2026-04-13T23:35:28.152Z</time>
      </trkpt>
      <trkpt lat="52.299892" lon="5.833182">
        <ele>58.109216</ele>
        <time>2026-04-13T23:35:45.460Z</time>
      </trkpt>
      <trkpt lat="52.299755" lon="5.833450">
        <ele>58.345002</ele>
        <time>2026-04-13T23:35:53.436Z</time>
      </trkpt>
      <trkpt lat="52.299779" lon="5.833676">
        <ele>58.499839</ele>
        <time>2026-04-13T23:35:56.898Z</time>
      </trkpt>
      <trkpt lat="52.299768" lon="5.833774">
        <ele>58.553688</ele>
        <time>2026-04-13T23:35:58.414Z</time>
      </trkpt>
      <trkpt lat="52.299625" lon="5.834365">
        <ele>58.820772</ele>
        <time>2026-04-13T23:36:07.935Z</time>
      </trkpt>
      <trkpt lat="52.299607" lon="5.834539">
        <ele>58.894930</ele>
        <time>2026-04-13T23:36:10.596Z</time>
      </trkpt>
      <trkpt lat="52.299600" lon="5.835018">
        <ele>59.096273</ele>
        <time>2026-04-13T23:36:17.794Z</time>
      </trkpt>
      <trkpt lat="52.299478" lon="5.837415">
        <ele>59.415737</ele>
        <time>2026-04-13T23:36:48.020Z</time>
      </trkpt>
      <trkpt lat="52.299487" lon="5.838329">
        <ele>59.017685</ele>
        <time>2026-04-13T23:36:57.438Z</time>
      </trkpt>
      <trkpt lat="52.299415" lon="5.838990">
        <ele>58.725322</ele>
        <time>2026-04-13T23:37:04.161Z</time>
      </trkpt>
      <trkpt lat="52.299519" lon="5.840980">
        <ele>57.662581</ele>
        <time>2026-04-13T23:37:24.456Z</time>
      </trkpt>
      <trkpt lat="52.299549" lon="5.841119">
        <ele>57.578764</ele>
        <time>2026-04-13T23:37:26.028Z</time>
      </trkpt>
      <trkpt lat="52.299844" lon="5.842421">
        <ele>56.799590</ele>
        <time>2026-04-13T23:37:40.875Z</time>
      </trkpt>
      <trkpt lat="52.300258" lon="5.843851">
        <ele>56.271005</ele>
        <time>2026-04-13T23:37:57.772Z</time>
      </trkpt>
      <trkpt lat="52.301030" lon="5.846495">
        <ele>56.227876</ele>
        <time>2026-04-13T23:38:30.339Z</time>
      </trkpt>
      <trkpt lat="52.301018" lon="5.846502">
        <ele>56.232987</ele>
        <time>2026-04-13T23:38:30.789Z</time>
      </trkpt>
      <trkpt lat="52.299837" lon="5.847040">
        <ele>57.439525</ele>
        <time>2026-04-13T23:39:16.656Z</time>
      </trkpt>
      <trkpt lat="52.299473" lon="5.847198">
        <ele>58.220010</ele>
        <time>2026-04-13T23:39:32.389Z</time>
      </trkpt>
      <trkpt lat="52.298728" lon="5.847541">
        <ele>59.823992</ele>
        <time>2026-04-13T23:40:05.855Z</time>
      </trkpt>
      <trkpt lat="52.298445" lon="5.847604">
        <ele>60.342837</ele>
        <time>2026-04-13T23:40:18.086Z</time>
      </trkpt>
      <trkpt lat="52.298303" lon="5.847304">
        <ele>60.563686</ele>
        <time>2026-04-13T23:40:27.836Z</time>
      </trkpt>
      <trkpt lat="52.298177" lon="5.846897">
        <ele>60.829255</ele>
        <time>2026-04-13T23:40:39.249Z</time>
      </trkpt>
      <trkpt lat="52.298042" lon="5.846799">
        <ele>60.969861</ele>
        <time>2026-04-13T23:40:45.153Z</time>
      </trkpt>
      <trkpt lat="52.294244" lon="5.846126">
        <ele>63.873175</ele>
        <time>2026-04-13T23:42:57.333Z</time>
      </trkpt>
      <trkpt lat="52.294033" lon="5.846150">
        <ele>63.910706</ele>
        <time>2026-04-13T23:43:04.156Z</time>
      </trkpt>
      <trkpt lat="52.293817" lon="5.846342">
        <ele>63.954331</ele>
        <time>2026-04-13T23:43:11.902Z</time>
      </trkpt>
      <trkpt lat="52.293613" lon="5.846575">
        <ele>63.998486</ele>
        <time>2026-04-13T23:43:19.618Z</time>
      </trkpt>
      <trkpt lat="52.293517" lon="5.846786">
        <ele>64.011934</ele>
        <time>2026-04-13T23:43:24.529Z</time>
      </trkpt>
      <trkpt lat="52.293371" lon="5.847429">
        <ele>63.671083</ele>
        <time>2026-04-13T23:43:36.993Z</time>
      </trkpt>
      <trkpt lat="52.293329" lon="5.847925">
        <ele>63.422243</ele>
        <time>2026-04-13T23:43:45.924Z</time>
      </trkpt>
      <trkpt lat="52.293295" lon="5.848330">
        <ele>63.219089</ele>
        <time>2026-04-13T23:43:53.178Z</time>
      </trkpt>
      <trkpt lat="52.293364" lon="5.849068">
        <ele>62.848076</ele>
        <time>2026-04-13T23:44:06.546Z</time>
      </trkpt>
      <trkpt lat="52.293280" lon="5.849532">
        <ele>62.607600</ele>
        <time>2026-04-13T23:44:15.305Z</time>
      </trkpt>
      <trkpt lat="52.293175" lon="5.849901">
        <ele>62.464516</ele>
        <time>2026-04-13T23:44:22.748Z</time>
      </trkpt>
      <trkpt lat="52.293017" lon="5.850218">
        <ele>62.337624</ele>
        <time>2026-04-13T23:44:30.287Z</time>
      </trkpt>
      <trkpt lat="52.292713" lon="5.850527">
        <ele>62.156014</ele>
        <time>2026-04-13T23:44:41.318Z</time>
      </trkpt>
      <trkpt lat="52.290540" lon="5.851242">
        <ele>61.144774</ele>
        <time>2026-04-13T23:45:48.991Z</time>
      </trkpt>
      <trkpt lat="52.289161" lon="5.852019">
        <ele>62.077481</ele>
        <time>2026-04-13T23:46:33.860Z</time>
      </trkpt>
      <trkpt lat="52.289105" lon="5.851736">
        <ele>62.319953</ele>
        <time>2026-04-13T23:46:41.178Z</time>
      </trkpt>
      <trkpt lat="52.288544" lon="5.850270">
        <ele>63.991995</ele>
        <time>2026-04-13T23:47:30.140Z</time>
      </trkpt>
      <trkpt lat="52.288355" lon="5.849961">
        <ele>64.566768</ele>
        <time>2026-04-13T23:47:42.898Z</time>
      </trkpt>
      <trkpt lat="52.288072" lon="5.849841">
        <ele>65.195450</ele>
        <time>2026-04-13T23:47:56.121Z</time>
      </trkpt>
      <trkpt lat="52.287757" lon="5.849789">
        <ele>65.876251</ele>
        <time>2026-04-13T23:48:09.439Z</time>
      </trkpt>
      <trkpt lat="52.286959" lon="5.850029">
        <ele>66.926267</ele>
        <time>2026-04-13T23:48:38.792Z</time>
      </trkpt>
      <trkpt lat="52.286188" lon="5.850580">
        <ele>65.950394</ele>
        <time>2026-04-13T23:49:03.912Z</time>
      </trkpt>
      <trkpt lat="52.286615" lon="5.853116">
        <ele>62.586297</ele>
        <time>2026-04-13T23:49:46.704Z</time>
      </trkpt>
      <trkpt lat="52.286727" lon="5.853363">
        <ele>62.041205</ele>
        <time>2026-04-13T23:49:51.522Z</time>
      </trkpt>
      <trkpt lat="52.287138" lon="5.853671">
        <ele>60.730836</ele>
        <time>2026-04-13T23:50:03.112Z</time>
      </trkpt>
      <trkpt lat="52.287212" lon="5.854148">
        <ele>59.858710</ele>
        <time>2026-04-13T23:50:10.843Z</time>
      </trkpt>
      <trkpt lat="52.287338" lon="5.854685">
        <ele>58.863875</ele>
        <time>2026-04-13T23:50:19.924Z</time>
      </trkpt>
      <trkpt lat="52.287269" lon="5.854984">
        <ele>58.311118</ele>
        <time>2026-04-13T23:50:25.007Z</time>
      </trkpt>
      <trkpt lat="52.287227" lon="5.855329">
        <ele>57.702669</ele>
        <time>2026-04-13T23:50:30.673Z</time>
      </trkpt>
      <trkpt lat="52.287044" lon="5.855698">
        <ele>56.880998</ele>
        <time>2026-04-13T23:50:38.382Z</time>
      </trkpt>
      <trkpt lat="52.286761" lon="5.855913">
        <ele>55.998575</ele>
        <time>2026-04-13T23:50:46.688Z</time>
      </trkpt>
      <trkpt lat="52.286495" lon="5.855885">
        <ele>55.244856</ele>
        <time>2026-04-13T23:50:53.776Z</time>
      </trkpt>
      <trkpt lat="52.286041" lon="5.856165">
        <ele>53.786824</ele>
        <time>2026-04-13T23:51:06.612Z</time>
      </trkpt>
      <trkpt lat="52.285855" lon="5.856399">
        <ele>53.060621</ele>
        <time>2026-04-13T23:51:12.726Z</time>
      </trkpt>
      <trkpt lat="52.285641" lon="5.856487">
        <ele>52.377850</ele>
        <time>2026-04-13T23:51:18.455Z</time>
      </trkpt>
      <trkpt lat="52.285405" lon="5.857091">
        <ele>51.021317</ele>
        <time>2026-04-13T23:51:29.685Z</time>
      </trkpt>
      <trkpt lat="52.285319" lon="5.858097">
        <ele>49.189898</ele>
        <time>2026-04-13T23:51:45.499Z</time>
      </trkpt>
      <trkpt lat="52.285457" lon="5.858596">
        <ele>48.935165</ele>
        <time>2026-04-13T23:51:54.219Z</time>
      </trkpt>
      <trkpt lat="52.285489" lon="5.859109">
        <ele>48.695301</ele>
        <time>2026-04-13T23:52:02.714Z</time>
      </trkpt>
      <trkpt lat="52.285399" lon="5.859601">
        <ele>48.456429</ele>
        <time>2026-04-13T23:52:11.694Z</time>
      </trkpt>
      <trkpt lat="52.285251" lon="5.859859">
        <ele>48.291906</ele>
        <time>2026-04-13T23:52:18.316Z</time>
      </trkpt>
      <trkpt lat="52.284951" lon="5.860591">
        <ele>47.882053</ele>
        <time>2026-04-13T23:52:37.698Z</time>
      </trkpt>
      <trkpt lat="52.283420" lon="5.860623">
        <ele>51.950935</ele>
        <time>2026-04-13T23:53:49.092Z</time>
      </trkpt>
      <trkpt lat="52.283353" lon="5.860563">
        <ele>52.160888</ele>
        <time>2026-04-13T23:53:52.663Z</time>
      </trkpt>
      <trkpt lat="52.283226" lon="5.861021">
        <ele>52.892254</ele>
        <time>2026-04-13T23:54:06.400Z</time>
      </trkpt>
      <trkpt lat="52.282227" lon="5.862965">
        <ele>54.856382</ele>
        <time>2026-04-13T23:55:04.431Z</time>
      </trkpt>
      <trkpt lat="52.282184" lon="5.863242">
        <ele>55.066475</ele>
        <time>2026-04-13T23:55:10.081Z</time>
      </trkpt>
      <trkpt lat="52.282252" lon="5.863695">
        <ele>54.925030</ele>
        <time>2026-04-13T23:55:19.175Z</time>
      </trkpt>
      <trkpt lat="52.282250" lon="5.863904">
        <ele>54.861644</ele>
        <time>2026-04-13T23:55:23.197Z</time>
      </trkpt>
      <trkpt lat="52.281954" lon="5.866210">
        <ele>54.142658</ele>
        <time>2026-04-13T23:56:05.970Z</time>
      </trkpt>
      <trkpt lat="52.281843" lon="5.866690">
        <ele>53.964496</ele>
        <time>2026-04-13T23:56:15.067Z</time>
      </trkpt>
      <trkpt lat="52.280968" lon="5.867095">
        <ele>53.448390</ele>
        <time>2026-04-13T23:56:30.658Z</time>
      </trkpt>
      <trkpt lat="52.280331" lon="5.867149">
        <ele>53.205685</ele>
        <time>2026-04-13T23:56:43.086Z</time>
      </trkpt>
      <trkpt lat="52.279773" lon="5.867042">
        <ele>53.423641</ele>
        <time>2026-04-13T23:56:54.849Z</time>
      </trkpt>
      <trkpt lat="52.279280" lon="5.867107">
        <ele>53.615517</ele>
        <time>2026-04-13T23:57:05.271Z</time>
      </trkpt>
      <trkpt lat="52.278962" lon="5.867072">
        <ele>53.739161</ele>
        <time>2026-04-13T23:57:11.990Z</time>
      </trkpt>
      <trkpt lat="52.278658" lon="5.867092">
        <ele>53.864164</ele>
        <time>2026-04-13T23:57:18.335Z</time>
      </trkpt>
      <trkpt lat="52.278485" lon="5.867143">
        <ele>54.151135</ele>
        <time>2026-04-13T23:57:22.007Z</time>
      </trkpt>
      <trkpt lat="52.277370" lon="5.867656">
        <ele>56.042058</ele>
        <time>2026-04-13T23:57:51.070Z</time>
      </trkpt>
      <trkpt lat="52.276024" lon="5.868152">
        <ele>59.206767</ele>
        <time>2026-04-13T23:58:36.432Z</time>
      </trkpt>
      <trkpt lat="52.275954" lon="5.866965">
        <ele>61.120699</ele>
        <time>2026-04-13T23:59:12.941Z</time>
      </trkpt>
      <trkpt lat="52.276654" lon="5.859452">
        <ele>66.680084</ele>
        <time>2026-04-14T00:02:29.915Z</time>
      </trkpt>
      <trkpt lat="52.277255" lon="5.852961">
        <ele>68.026155</ele>
        <time>2026-04-14T00:05:03.192Z</time>
      </trkpt>
      <trkpt lat="52.277514" lon="5.850166">
        <ele>67.962015</ele>
        <time>2026-04-14T00:06:08.008Z</time>
      </trkpt>
      <trkpt lat="52.277508" lon="5.850150">
        <ele>67.960588</ele>
        <time>2026-04-14T00:06:08.355Z</time>
      </trkpt>
      <trkpt lat="52.277458" lon="5.850033">
        <ele>67.949743</ele>
        <time>2026-04-14T00:06:11.075Z</time>
      </trkpt>
      <trkpt lat="52.277437" lon="5.849745">
        <ele>67.927701</ele>
        <time>2026-04-14T00:06:16.546Z</time>
      </trkpt>
      <trkpt lat="52.277272" lon="5.849401">
        <ele>67.894482</ele>
        <time>2026-04-14T00:06:24.668Z</time>
      </trkpt>
      <trkpt lat="52.277068" lon="5.849065">
        <ele>67.621165</ele>
        <time>2026-04-14T00:06:33.287Z</time>
      </trkpt>
      <trkpt lat="52.276880" lon="5.848853">
        <ele>67.405524</ele>
        <time>2026-04-14T00:06:40.006Z</time>
      </trkpt>
      <trkpt lat="52.276658" lon="5.848692">
        <ele>67.176222</ele>
        <time>2026-04-14T00:06:47.058Z</time>
      </trkpt>
      <trkpt lat="52.275736" lon="5.848369">
        <ele>66.285974</ele>
        <time>2026-04-14T00:07:14.322Z</time>
      </trkpt>
      <trkpt lat="52.275097" lon="5.848237">
        <ele>65.610619</ele>
        <time>2026-04-14T00:07:33.450Z</time>
      </trkpt>
      <trkpt lat="52.274329" lon="5.848196">
        <ele>64.791029</ele>
        <time>2026-04-14T00:07:56.169Z</time>
      </trkpt>
      <trkpt lat="52.274051" lon="5.848246">
        <ele>64.492722</ele>
        <time>2026-04-14T00:08:04.231Z</time>
      </trkpt>
      <trkpt lat="52.273501" lon="5.848423">
        <ele>63.744174</ele>
        <time>2026-04-14T00:08:19.903Z</time>
      </trkpt>
      <trkpt lat="52.273136" lon="5.848600">
        <ele>63.178383</ele>
        <time>2026-04-14T00:08:30.270Z</time>
      </trkpt>
      <trkpt lat="52.272774" lon="5.848843">
        <ele>62.596813</ele>
        <time>2026-04-14T00:08:40.766Z</time>
      </trkpt>
      <trkpt lat="52.271988" lon="5.849568">
        <ele>61.838403</ele>
        <time>2026-04-14T00:09:06.862Z</time>
      </trkpt>
      <trkpt lat="52.269755" lon="5.850440">
        <ele>64.751544</ele>
        <time>2026-04-14T00:10:35.731Z</time>
      </trkpt>
      <trkpt lat="52.268912" lon="5.850764">
        <ele>66.360938</ele>
        <time>2026-04-14T00:11:12.422Z</time>
      </trkpt>
      <trkpt lat="52.268759" lon="5.850885">
        <ele>66.676825</ele>
        <time>2026-04-14T00:11:19.557Z</time>
      </trkpt>
      <trkpt lat="52.267865" lon="5.851181">
        <ele>66.350878</ele>
        <time>2026-04-14T00:11:52.637Z</time>
      </trkpt>
      <trkpt lat="52.267676" lon="5.851290">
        <ele>66.264000</ele>
        <time>2026-04-14T00:11:58.712Z</time>
      </trkpt>
      <trkpt lat="52.267717" lon="5.846166">
        <ele>60.508003</ele>
        <time>2026-04-14T00:12:45.524Z</time>
      </trkpt>
      <trkpt lat="52.267559" lon="5.844810">
        <ele>59.276072</ele>
        <time>2026-04-14T00:12:59.514Z</time>
      </trkpt>
      <trkpt lat="52.267376" lon="5.843583">
        <ele>58.684275</ele>
        <time>2026-04-14T00:13:13.764Z</time>
      </trkpt>
      <trkpt lat="52.267136" lon="5.842755">
        <ele>58.548757</ele>
        <time>2026-04-14T00:13:24.163Z</time>
      </trkpt>
      <trkpt lat="52.266706" lon="5.839942">
        <ele>58.917873</ele>
        <time>2026-04-14T00:13:57.693Z</time>
      </trkpt>
      <trkpt lat="52.265867" lon="5.834307">
        <ele>62.780002</ele>
        <time>2026-04-14T00:15:26.974Z</time>
      </trkpt>
      <trkpt lat="52.265709" lon="5.834297">
        <ele>62.951919</ele>
        <time>2026-04-14T00:15:30.896Z</time>
      </trkpt>
      <trkpt lat="52.264808" lon="5.837477">
        <ele>64.896145</ele>
        <time>2026-04-14T00:16:20.673Z</time>
      </trkpt>
      <trkpt lat="52.264567" lon="5.838259">
        <ele>65.460706</ele>
        <time>2026-04-14T00:16:33.580Z</time>
      </trkpt>
      <trkpt lat="52.264361" lon="5.838702">
        <ele>65.993596</ele>
        <time>2026-04-14T00:16:42.086Z</time>
      </trkpt>
      <trkpt lat="52.264073" lon="5.839159">
        <ele>66.621883</ele>
        <time>2026-04-14T00:16:52.409Z</time>
      </trkpt>
      <trkpt lat="52.263090" lon="5.840378">
        <ele>68.943727</ele>
        <time>2026-04-14T00:17:27.697Z</time>
      </trkpt>
      <trkpt lat="52.261631" lon="5.842190">
        <ele>73.813626</ele>
        <time>2026-04-14T00:18:28.609Z</time>
      </trkpt>
      <trkpt lat="52.260208" lon="5.844164">
        <ele>77.160154</ele>
        <time>2026-04-14T00:19:27.113Z</time>
      </trkpt>
      <trkpt lat="52.257925" lon="5.847404">
        <ele>73.445258</ele>
        <time>2026-04-14T00:20:16.750Z</time>
      </trkpt>
      <trkpt lat="52.256440" lon="5.849454">
        <ele>70.192117</ele>
        <time>2026-04-14T00:20:48.269Z</time>
      </trkpt>
      <trkpt lat="52.254908" lon="5.842695">
        <ele>70.044580</ele>
        <time>2026-04-14T00:23:35.033Z</time>
      </trkpt>
      <trkpt lat="52.254393" lon="5.840549">
        <ele>68.777669</ele>
        <time>2026-04-14T00:24:25.182Z</time>
      </trkpt>
      <trkpt lat="52.253381" lon="5.839142">
        <ele>65.781252</ele>
        <time>2026-04-14T00:25:06.665Z</time>
      </trkpt>
      <trkpt lat="52.251878" lon="5.836926">
        <ele>59.491927</ele>
        <time>2026-04-14T00:26:08.734Z</time>
      </trkpt>
      <trkpt lat="52.251318" lon="5.834810">
        <ele>56.001780</ele>
        <time>2026-04-14T00:26:53.659Z</time>
      </trkpt>
      <trkpt lat="52.251187" lon="5.832223">
        <ele>53.141435</ele>
        <time>2026-04-14T00:27:45.799Z</time>
      </trkpt>
      <trkpt lat="52.251010" lon="5.827774">
        <ele>50.561050</ele>
        <time>2026-04-14T00:29:18.686Z</time>
      </trkpt>
      <trkpt lat="52.249840" lon="5.827349">
        <ele>51.065514</ele>
        <time>2026-04-14T00:30:02.724Z</time>
      </trkpt>
      <trkpt lat="52.248528" lon="5.826933">
        <ele>52.552776</ele>
        <time>2026-04-14T00:30:54.716Z</time>
      </trkpt>
      <trkpt lat="52.248426" lon="5.826874">
        <ele>52.676789</ele>
        <time>2026-04-14T00:30:58.502Z</time>
      </trkpt>
      <trkpt lat="52.248371" lon="5.826788">
        <ele>52.764050</ele>
        <time>2026-04-14T00:31:01.161Z</time>
      </trkpt>
      <trkpt lat="52.248308" lon="5.826607">
        <ele>52.910141</ele>
        <time>2026-04-14T00:31:05.491Z</time>
      </trkpt>
      <trkpt lat="52.248221" lon="5.826113">
        <ele>53.217369</ele>
        <time>2026-04-14T00:31:15.855Z</time>
      </trkpt>
      <trkpt lat="52.248165" lon="5.824674">
        <ele>53.771402</ele>
        <time>2026-04-14T00:31:44.469Z</time>
      </trkpt>
      <trkpt lat="52.248063" lon="5.824106">
        <ele>53.998843</ele>
        <time>2026-04-14T00:31:56.872Z</time>
      </trkpt>
      <trkpt lat="52.247858" lon="5.823507">
        <ele>54.262521</ele>
        <time>2026-04-14T00:32:12.056Z</time>
      </trkpt>
      <trkpt lat="52.247309" lon="5.822361">
        <ele>55.900400</ele>
        <time>2026-04-14T00:32:47.771Z</time>
      </trkpt>
      <trkpt lat="52.247311" lon="5.822231">
        <ele>56.050159</ele>
        <time>2026-04-14T00:32:51.107Z</time>
      </trkpt>
      <trkpt lat="52.247399" lon="5.822167">
        <ele>56.231351</ele>
        <time>2026-04-14T00:32:55.039Z</time>
      </trkpt>
      <trkpt lat="52.247329" lon="5.821944">
        <ele>56.519949</ele>
        <time>2026-04-14T00:33:01.403Z</time>
      </trkpt>
      <trkpt lat="52.247025" lon="5.821234">
        <ele>57.517712</ele>
        <time>2026-04-14T00:33:23.285Z</time>
      </trkpt>
      <trkpt lat="52.246999" lon="5.821169">
        <ele>57.607127</ele>
        <time>2026-04-14T00:33:25.247Z</time>
      </trkpt>
      <trkpt lat="52.246542" lon="5.821812">
        <ele>58.789611</ele>
        <time>2026-04-14T00:33:41.299Z</time>
      </trkpt>
      <trkpt lat="52.242835" lon="5.822546">
        <ele>65.698758</ele>
        <time>2026-04-14T00:36:31.279Z</time>
      </trkpt>
      <trkpt lat="52.241390" lon="5.822833">
        <ele>67.610363</ele>
        <time>2026-04-14T00:37:35.511Z</time>
      </trkpt>
      <trkpt lat="52.238358" lon="5.823504">
        <ele>67.631814</ele>
        <time>2026-04-14T00:39:14.445Z</time>
      </trkpt>
      <trkpt lat="52.238572" lon="5.818018">
        <ele>59.116732</ele>
        <time>2026-04-14T00:40:42.549Z</time>
      </trkpt>
      <trkpt lat="52.238698" lon="5.814783">
        <ele>55.115403</ele>
        <time>2026-04-14T00:41:36.967Z</time>
      </trkpt>
      <trkpt lat="52.235918" lon="5.815263">
        <ele>52.414056</ele>
        <time>2026-04-14T00:42:24.091Z</time>
      </trkpt>
      <trkpt lat="52.235627" lon="5.815110">
        <ele>52.268374</ele>
        <time>2026-04-14T00:42:29.881Z</time>
      </trkpt>
      <trkpt lat="52.235455" lon="5.814962">
        <ele>52.175726</ele>
        <time>2026-04-14T00:42:33.901Z</time>
      </trkpt>
      <trkpt lat="52.235218" lon="5.814687">
        <ele>52.037177</ele>
        <time>2026-04-14T00:42:39.671Z</time>
      </trkpt>
      <trkpt lat="52.235059" lon="5.814629">
        <ele>51.959540</ele>
        <time>2026-04-14T00:42:42.785Z</time>
      </trkpt>
      <trkpt lat="52.234946" lon="5.814639">
        <ele>51.858177</ele>
        <time>2026-04-14T00:42:44.902Z</time>
      </trkpt>
      <trkpt lat="52.234971" lon="5.815421">
        <ele>51.169887</ele>
        <time>2026-04-14T00:42:53.531Z</time>
      </trkpt>
      <trkpt lat="52.234946" lon="5.814639">
        <ele>50.481597</ele>
        <time>2026-04-14T00:43:01.509Z</time>
      </trkpt>
      <trkpt lat="52.234910" lon="5.813496">
        <ele>49.475606</ele>
        <time>2026-04-14T00:43:12.181Z</time>
      </trkpt>
      <trkpt lat="52.234939" lon="5.812631">
        <ele>48.342016</ele>
        <time>2026-04-14T00:43:19.962Z</time>
      </trkpt>
      <trkpt lat="52.234995" lon="5.812174">
        <ele>47.691746</ele>
        <time>2026-04-14T00:43:24.165Z</time>
      </trkpt>
      <trkpt lat="52.235101" lon="5.811769">
        <ele>47.077229</ele>
        <time>2026-04-14T00:43:28.157Z</time>
      </trkpt>
      <trkpt lat="52.235275" lon="5.811360">
        <ele>46.382395</ele>
        <time>2026-04-14T00:43:32.750Z</time>
      </trkpt>
      <trkpt lat="52.235829" lon="5.810441">
        <ele>44.972273</ele>
        <time>2026-04-14T00:43:45.264Z</time>
      </trkpt>
      <trkpt lat="52.236599" lon="5.809162">
        <ele>43.930085</ele>
        <time>2026-04-14T00:44:04.326Z</time>
      </trkpt>
      <trkpt lat="52.236751" lon="5.808845">
        <ele>43.696139</ele>
        <time>2026-04-14T00:44:08.760Z</time>
      </trkpt>
      <trkpt lat="52.236810" lon="5.808680">
        <ele>43.585114</ele>
        <time>2026-04-14T00:44:10.831Z</time>
      </trkpt>
      <trkpt lat="52.236679" lon="5.808269">
        <ele>43.339647</ele>
        <time>2026-04-14T00:44:20.811Z</time>
      </trkpt>
      <trkpt lat="52.236556" lon="5.808086">
        <ele>43.198257</ele>
        <time>2026-04-14T00:44:26.614Z</time>
      </trkpt>
      <trkpt lat="52.235753" lon="5.807586">
        <ele>42.468019</ele>
        <time>2026-04-14T00:44:56.400Z</time>
      </trkpt>
      <trkpt lat="52.235634" lon="5.807598">
        <ele>42.366712</ele>
        <time>2026-04-14T00:45:00.508Z</time>
      </trkpt>
      <trkpt lat="52.235152" lon="5.807791">
        <ele>41.943713</ele>
        <time>2026-04-14T00:45:17.652Z</time>
      </trkpt>
      <trkpt lat="52.234671" lon="5.808053">
        <ele>41.504818</ele>
        <time>2026-04-14T00:45:35.326Z</time>
      </trkpt>
      <trkpt lat="52.234592" lon="5.808054">
        <ele>41.436435</ele>
        <time>2026-04-14T00:45:38.097Z</time>
      </trkpt>
      <trkpt lat="52.234535" lon="5.807998">
        <ele>41.378856</ele>
        <time>2026-04-14T00:45:40.455Z</time>
      </trkpt>
      <trkpt lat="52.234472" lon="5.807856">
        <ele>41.285904</ele>
        <time>2026-04-14T00:45:44.213Z</time>
      </trkpt>
      <trkpt lat="52.233396" lon="5.804173">
        <ele>39.380097</ele>
        <time>2026-04-14T00:47:11.066Z</time>
      </trkpt>
      <trkpt lat="52.232241" lon="5.800402">
        <ele>38.866318</ele>
        <time>2026-04-14T00:48:46.706Z</time>
      </trkpt>
      <trkpt lat="52.232133" lon="5.800251">
        <ele>38.810065</ele>
        <time>2026-04-14T00:48:51.824Z</time>
      </trkpt>
      <trkpt lat="52.232090" lon="5.800238">
        <ele>38.792764</ele>
        <time>2026-04-14T00:48:53.397Z</time>
      </trkpt>
      <trkpt lat="52.231986" lon="5.800300">
        <ele>38.748961</ele>
        <time>2026-04-14T00:48:57.335Z</time>
      </trkpt>
      <trkpt lat="52.230836" lon="5.801453">
        <ele>38.291276</ele>
        <time>2026-04-14T00:49:45.213Z</time>
      </trkpt>
      <trkpt lat="52.229270" lon="5.802958">
        <ele>38.046945</ele>
        <time>2026-04-14T00:50:52.095Z</time>
      </trkpt>
      <trkpt lat="52.229179" lon="5.803079">
        <ele>38.055796</ele>
        <time>2026-04-14T00:50:56.391Z</time>
      </trkpt>
      <trkpt lat="52.228742" lon="5.803484">
        <ele>38.093690</ele>
        <time>2026-04-14T00:51:14.948Z</time>
      </trkpt>
      <trkpt lat="52.228516" lon="5.803631">
        <ele>38.112036</ele>
        <time>2026-04-14T00:51:23.916Z</time>
      </trkpt>
      <trkpt lat="52.228328" lon="5.803924">
        <ele>38.131636</ele>
        <time>2026-04-14T00:51:33.549Z</time>
      </trkpt>
      <trkpt lat="52.227128" lon="5.805050">
        <ele>39.377787</ele>
        <time>2026-04-14T00:52:28.669Z</time>
      </trkpt>
      <trkpt lat="52.226542" lon="5.805699">
        <ele>40.173081</ele>
        <time>2026-04-14T00:53:00.981Z</time>
      </trkpt>
      <trkpt lat="52.226315" lon="5.805815">
        <ele>40.607421</ele>
        <time>2026-04-14T00:53:12.025Z</time>
      </trkpt>
      <trkpt lat="52.225940" lon="5.806259">
        <ele>41.453311</ele>
        <time>2026-04-14T00:53:33.631Z</time>
      </trkpt>
      <trkpt lat="52.226351" lon="5.808283">
        <ele>44.023953</ele>
        <time>2026-04-14T00:54:08.258Z</time>
      </trkpt>
      <trkpt lat="52.226433" lon="5.808564">
        <ele>44.532664</ele>
        <time>2026-04-14T00:54:13.571Z</time>
      </trkpt>
      <trkpt lat="52.226636" lon="5.808972">
        <ele>45.391746</ele>
        <time>2026-04-14T00:54:23.143Z</time>
      </trkpt>
      <trkpt lat="52.226716" lon="5.809242">
        <ele>45.881938</ele>
        <time>2026-04-14T00:54:29.013Z</time>
      </trkpt>
      <trkpt lat="52.226726" lon="5.809445">
        <ele>46.214783</ele>
        <time>2026-04-14T00:54:33.078Z</time>
      </trkpt>
      <trkpt lat="52.226740" lon="5.809678">
        <ele>46.597416</ele>
        <time>2026-04-14T00:54:37.913Z</time>
      </trkpt>
      <trkpt lat="52.226813" lon="5.811121">
        <ele>48.513165</ele>
        <time>2026-04-14T00:55:08.898Z</time>
      </trkpt>
      <trkpt lat="52.226879" lon="5.811687">
        <ele>48.872543</ele>
        <time>2026-04-14T00:55:19.731Z</time>
      </trkpt>
      <trkpt lat="52.226932" lon="5.811971">
        <ele>49.057725</ele>
        <time>2026-04-14T00:55:24.426Z</time>
      </trkpt>
      <trkpt lat="52.227050" lon="5.812111">
        <ele>49.206263</ele>
        <time>2026-04-14T00:55:27.810Z</time>
      </trkpt>
      <trkpt lat="52.227097" lon="5.812042">
        <ele>49.270628</ele>
        <time>2026-04-14T00:55:29.158Z</time>
      </trkpt>
      <trkpt lat="52.227123" lon="5.811928">
        <ele>49.346503</ele>
        <time>2026-04-14T00:55:30.697Z</time>
      </trkpt>
      <trkpt lat="52.227176" lon="5.811504">
        <ele>49.616419</ele>
        <time>2026-04-14T00:55:35.641Z</time>
      </trkpt>
      <trkpt lat="52.227218" lon="5.811420">
        <ele>49.684052</ele>
        <time>2026-04-14T00:55:36.822Z</time>
      </trkpt>
      <trkpt lat="52.227639" lon="5.810944">
        <ele>50.078612</ele>
        <time>2026-04-14T00:55:45.361Z</time>
      </trkpt>
      <trkpt lat="52.227753" lon="5.810641">
        <ele>50.097831</ele>
        <time>2026-04-14T00:55:48.886Z</time>
      </trkpt>
      <trkpt lat="52.227870" lon="5.810419">
        <ele>50.113660</ele>
        <time>2026-04-14T00:55:51.805Z</time>
      </trkpt>
      <trkpt lat="52.227957" lon="5.810137">
        <ele>50.130726</ele>
        <time>2026-04-14T00:55:55.038Z</time>
      </trkpt>
      <trkpt lat="52.228424" lon="5.809869">
        <ele>50.174405</ele>
        <time>2026-04-14T00:56:04.064Z</time>
      </trkpt>
      <trkpt lat="52.228614" lon="5.809836">
        <ele>50.191265</ele>
        <time>2026-04-14T00:56:08.291Z</time>
      </trkpt>
      <trkpt lat="52.228761" lon="5.809739">
        <ele>50.205255</ele>
        <time>2026-04-14T00:56:12.177Z</time>
      </trkpt>
      <trkpt lat="52.229025" lon="5.809745">
        <ele>50.371346</ele>
        <time>2026-04-14T00:56:19.447Z</time>
      </trkpt>
      <trkpt lat="52.229227" lon="5.809791">
        <ele>51.174837</ele>
        <time>2026-04-14T00:56:25.673Z</time>
      </trkpt>
      <trkpt lat="52.229473" lon="5.810022">
        <ele>52.292826</ele>
        <time>2026-04-14T00:56:35.177Z</time>
      </trkpt>
      <trkpt lat="52.229596" lon="5.810352">
        <ele>53.224953</ele>
        <time>2026-04-14T00:56:44.061Z</time>
      </trkpt>
      <trkpt lat="52.229643" lon="5.810553">
        <ele>53.744101</ele>
        <time>2026-04-14T00:56:49.247Z</time>
      </trkpt>
      <trkpt lat="52.229642" lon="5.810819">
        <ele>54.385960</ele>
        <time>2026-04-14T00:56:55.786Z</time>
      </trkpt>
      <trkpt lat="52.229530" lon="5.811367">
        <ele>55.779937</ele>
        <time>2026-04-14T00:57:10.149Z</time>
      </trkpt>
      <trkpt lat="52.229413" lon="5.811727">
        <ele>56.763319</ele>
        <time>2026-04-14T00:57:20.517Z</time>
      </trkpt>
      <trkpt lat="52.229285" lon="5.812032">
        <ele>57.729904</ele>
        <time>2026-04-14T00:57:30.185Z</time>
      </trkpt>
      <trkpt lat="52.229140" lon="5.812247">
        <ele>58.668386</ele>
        <time>2026-04-14T00:57:41.443Z</time>
      </trkpt>
      <trkpt lat="52.228936" lon="5.812395">
        <ele>59.737955</ele>
        <time>2026-04-14T00:57:54.437Z</time>
      </trkpt>
      <trkpt lat="52.228634" lon="5.812878">
        <ele>61.763503</ele>
        <time>2026-04-14T00:58:18.915Z</time>
      </trkpt>
      <trkpt lat="52.228585" lon="5.813079">
        <ele>62.398379</ele>
        <time>2026-04-14T00:58:26.444Z</time>
      </trkpt>
      <trkpt lat="52.228506" lon="5.813754">
        <ele>64.415138</ele>
        <time>2026-04-14T00:58:49.212Z</time>
      </trkpt>
      <trkpt lat="52.228409" lon="5.813988">
        <ele>65.244341</ele>
        <time>2026-04-14T00:58:58.376Z</time>
      </trkpt>
      <trkpt lat="52.228161" lon="5.814262">
        <ele>66.260387</ele>
        <time>2026-04-14T00:59:13.867Z</time>
      </trkpt>
      <trkpt lat="52.228095" lon="5.814402">
        <ele>66.489507</ele>
        <time>2026-04-14T00:59:19.347Z</time>
      </trkpt>
      <trkpt lat="52.228062" lon="5.814836">
        <ele>67.056693</ele>
        <time>2026-04-14T00:59:32.474Z</time>
      </trkpt>
      <trkpt lat="52.228135" lon="5.815254">
        <ele>67.620412</ele>
        <time>2026-04-14T00:59:44.679Z</time>
      </trkpt>
      <trkpt lat="52.228213" lon="5.816051">
        <ele>68.667169</ele>
        <time>2026-04-14T01:00:04.884Z</time>
      </trkpt>
      <trkpt lat="52.228331" lon="5.816719">
        <ele>69.568819</ele>
        <time>2026-04-14T01:00:20.476Z</time>
      </trkpt>
      <trkpt lat="52.228415" lon="5.816917">
        <ele>69.773908</ele>
        <time>2026-04-14T01:00:25.376Z</time>
      </trkpt>
      <trkpt lat="52.228521" lon="5.817027">
        <ele>69.841693</ele>
        <time>2026-04-14T01:00:29.458Z</time>
      </trkpt>
      <trkpt lat="52.228733" lon="5.817105">
        <ele>69.958974</ele>
        <time>2026-04-14T01:00:36.541Z</time>
      </trkpt>
      <trkpt lat="52.228831" lon="5.817180">
        <ele>70.017386</ele>
        <time>2026-04-14T01:00:40.080Z</time>
      </trkpt>
      <trkpt lat="52.228908" lon="5.817349">
        <ele>70.087011</ele>
        <time>2026-04-14T01:00:44.263Z</time>
      </trkpt>
      <trkpt lat="52.228971" lon="5.817719">
        <ele>70.213956</ele>
        <time>2026-04-14T01:00:51.917Z</time>
      </trkpt>
      <trkpt lat="52.228979" lon="5.817990">
        <ele>70.303641</ele>
        <time>2026-04-14T01:00:57.374Z</time>
      </trkpt>
      <trkpt lat="52.229036" lon="5.818251">
        <ele>70.395237</ele>
        <time>2026-04-14T01:01:03.057Z</time>
      </trkpt>
      <trkpt lat="52.229053" lon="5.818513">
        <ele>70.482328</ele>
        <time>2026-04-14T01:01:08.659Z</time>
      </trkpt>
      <trkpt lat="52.229152" lon="5.819044">
        <ele>70.665806</ele>
        <time>2026-04-14T01:01:20.805Z</time>
      </trkpt>
      <trkpt lat="52.229160" lon="5.819243">
        <ele>70.734851</ele>
        <time>2026-04-14T01:01:25.251Z</time>
      </trkpt>
      <trkpt lat="52.229227" lon="5.819581">
        <ele>70.867675</ele>
        <time>2026-04-14T01:01:33.308Z</time>
      </trkpt>
      <trkpt lat="52.229263" lon="5.819897">
        <ele>70.987848</ele>
        <time>2026-04-14T01:01:40.680Z</time>
      </trkpt>
      <trkpt lat="52.229217" lon="5.820402">
        <ele>71.178733</ele>
        <time>2026-04-14T01:01:52.381Z</time>
      </trkpt>
      <trkpt lat="52.229240" lon="5.820560">
        <ele>71.239452</ele>
        <time>2026-04-14T01:01:56.077Z</time>
      </trkpt>
      <trkpt lat="52.229482" lon="5.820935">
        <ele>71.443115</ele>
        <time>2026-04-14T01:02:08.051Z</time>
      </trkpt>
      <trkpt lat="52.229546" lon="5.821220">
        <ele>71.556605</ele>
        <time>2026-04-14T01:02:14.414Z</time>
      </trkpt>
      <trkpt lat="52.229733" lon="5.821719">
        <ele>71.775319</ele>
        <time>2026-04-14T01:02:25.907Z</time>
      </trkpt>
      <trkpt lat="52.229781" lon="5.822032">
        <ele>71.693126</ele>
        <time>2026-04-14T01:02:31.918Z</time>
      </trkpt>
      <trkpt lat="52.229940" lon="5.822531">
        <ele>71.430198</ele>
        <time>2026-04-14T01:02:41.916Z</time>
      </trkpt>
      <trkpt lat="52.230037" lon="5.822644">
        <ele>71.339257</ele>
        <time>2026-04-14T01:02:45.281Z</time>
      </trkpt>
      <trkpt lat="52.230431" lon="5.822810">
        <ele>71.028716</ele>
        <time>2026-04-14T01:02:56.770Z</time>
      </trkpt>
      <trkpt lat="52.230865" lon="5.823097">
        <ele>70.671361</ele>
        <time>2026-04-14T01:03:10.410Z</time>
      </trkpt>
      <trkpt lat="52.230969" lon="5.823282">
        <ele>70.553984</ele>
        <time>2026-04-14T01:03:15.094Z</time>
      </trkpt>
      <trkpt lat="52.230986" lon="5.823381">
        <ele>70.505924</ele>
        <time>2026-04-14T01:03:17.050Z</time>
      </trkpt>
      <trkpt lat="52.230979" lon="5.823910">
        <ele>70.554215</ele>
        <time>2026-04-14T01:03:27.344Z</time>
      </trkpt>
      <trkpt lat="52.230952" lon="5.824054">
        <ele>70.603045</ele>
        <time>2026-04-14T01:03:30.424Z</time>
      </trkpt>
      <trkpt lat="52.230915" lon="5.825231">
        <ele>70.985178</ele>
        <time>2026-04-14T01:03:55.089Z</time>
      </trkpt>
      <trkpt lat="52.231087" lon="5.825641">
        <ele>71.146311</ele>
        <time>2026-04-14T01:04:06.058Z</time>
      </trkpt>
      <trkpt lat="52.231208" lon="5.826306">
        <ele>71.371243</ele>
        <time>2026-04-14T01:04:21.182Z</time>
      </trkpt>
      <trkpt lat="52.231323" lon="5.826623">
        <ele>71.667267</ele>
        <time>2026-04-14T01:04:29.010Z</time>
      </trkpt>
      <trkpt lat="52.231295" lon="5.826719">
        <ele>71.759507</ele>
        <time>2026-04-14T01:04:31.257Z</time>
      </trkpt>
      <trkpt lat="52.233141" lon="5.830766">
        <ele>76.630244</ele>
        <time>2026-04-14T01:05:52.627Z</time>
      </trkpt>
      <trkpt lat="52.233284" lon="5.830952">
        <ele>76.947167</ele>
        <time>2026-04-14T01:05:57.875Z</time>
      </trkpt>
      <trkpt lat="52.233596" lon="5.830789">
        <ele>77.652173</ele>
        <time>2026-04-14T01:06:07.476Z</time>
      </trkpt>
      <trkpt lat="52.233841" lon="5.830756">
        <ele>78.204202</ele>
        <time>2026-04-14T01:06:14.931Z</time>
      </trkpt>
      <trkpt lat="52.233920" lon="5.830794">
        <ele>78.389138</ele>
        <time>2026-04-14T01:06:17.554Z</time>
      </trkpt>
      <trkpt lat="52.233757" lon="5.831702">
        <ele>79.690420</ele>
        <time>2026-04-14T01:06:35.799Z</time>
      </trkpt>
      <trkpt lat="52.233464" lon="5.832017">
        <ele>80.478180</ele>
        <time>2026-04-14T01:06:45.237Z</time>
      </trkpt>
      <trkpt lat="52.233487" lon="5.832154">
        <ele>80.673544</ele>
        <time>2026-04-14T01:06:47.533Z</time>
      </trkpt>
      <trkpt lat="52.233483" lon="5.832253">
        <ele>80.809992</ele>
        <time>2026-04-14T01:06:49.203Z</time>
      </trkpt>
      <trkpt lat="52.233261" lon="5.832736">
        <ele>81.209854</ele>
        <time>2026-04-14T01:06:59.270Z</time>
      </trkpt>
      <trkpt lat="52.233118" lon="5.833219">
        <ele>81.370816</ele>
        <time>2026-04-14T01:07:07.383Z</time>
      </trkpt>
      <trkpt lat="52.232880" lon="5.834211">
        <ele>81.690475</ele>
        <time>2026-04-14T01:07:20.580Z</time>
      </trkpt>
      <trkpt lat="52.232339" lon="5.834473">
        <ele>81.966920</ele>
        <time>2026-04-14T01:07:30.652Z</time>
      </trkpt>
      <trkpt lat="52.231712" lon="5.834950">
        <ele>82.352054</ele>
        <time>2026-04-14T01:07:43.401Z</time>
      </trkpt>
      <trkpt lat="52.231410" lon="5.835636">
        <ele>82.640550</ele>
        <time>2026-04-14T01:07:54.363Z</time>
      </trkpt>
      <trkpt lat="52.231200" lon="5.835681">
        <ele>82.758641</ele>
        <time>2026-04-14T01:07:59.376Z</time>
      </trkpt>
      <trkpt lat="52.230843" lon="5.835835">
        <ele>82.964519</ele>
        <time>2026-04-14T01:08:08.876Z</time>
      </trkpt>
      <trkpt lat="52.230553" lon="5.836268">
        <ele>83.993017</ele>
        <time>2026-04-14T01:08:19.890Z</time>
      </trkpt>
      <trkpt lat="52.230345" lon="5.836420">
        <ele>84.609899</ele>
        <time>2026-04-14T01:08:26.692Z</time>
      </trkpt>
      <trkpt lat="52.230005" lon="5.837036">
        <ele>85.984752</ele>
        <time>2026-04-14T01:08:42.777Z</time>
      </trkpt>
      <trkpt lat="52.229784" lon="5.837252">
        <ele>86.682002</ele>
        <time>2026-04-14T01:08:51.401Z</time>
      </trkpt>
      <trkpt lat="52.229184" lon="5.838039">
        <ele>88.964971</ele>
        <time>2026-04-14T01:09:18.467Z</time>
      </trkpt>
      <trkpt lat="52.229134" lon="5.838188">
        <ele>89.307573</ele>
        <time>2026-04-14T01:09:22.204Z</time>
      </trkpt>
      <trkpt lat="52.229064" lon="5.838272">
        <ele>89.593588</ele>
        <time>2026-04-14T01:09:25.283Z</time>
      </trkpt>
      <trkpt lat="52.229047" lon="5.838371">
        <ele>89.800923</ele>
        <time>2026-04-14T01:09:27.541Z</time>
      </trkpt>
      <trkpt lat="52.228941" lon="5.838566">
        <ele>90.326676</ele>
        <time>2026-04-14T01:09:33.226Z</time>
      </trkpt>
      <trkpt lat="52.228527" lon="5.839601">
        <ele>92.819451</ele>
        <time>2026-04-14T01:09:59.358Z</time>
      </trkpt>
      <trkpt lat="52.228572" lon="5.839993">
        <ele>93.623709</ele>
        <time>2026-04-14T01:10:07.407Z</time>
      </trkpt>
      <trkpt lat="52.228229" lon="5.841507">
        <ele>95.361461</ele>
        <time>2026-04-14T01:10:36.351Z</time>
      </trkpt>
      <trkpt lat="52.228200" lon="5.841742">
        <ele>95.609359</ele>
        <time>2026-04-14T01:10:40.174Z</time>
      </trkpt>
      <trkpt lat="52.228232" lon="5.842060">
        <ele>95.942612</ele>
        <time>2026-04-14T01:10:45.201Z</time>
      </trkpt>
      <trkpt lat="52.228880" lon="5.843626">
        <ele>96.626170</ele>
        <time>2026-04-14T01:11:10.162Z</time>
      </trkpt>
      <trkpt lat="52.229233" lon="5.844638">
        <ele>96.434234</ele>
        <time>2026-04-14T01:11:22.648Z</time>
      </trkpt>
      <trkpt lat="52.229357" lon="5.845056">
        <ele>96.357689</ele>
        <time>2026-04-14T01:11:27.465Z</time>
      </trkpt>
      <trkpt lat="52.229559" lon="5.846231">
        <ele>96.468776</ele>
        <time>2026-04-14T01:11:40.316Z</time>
      </trkpt>
      <trkpt lat="52.229763" lon="5.847266">
        <ele>96.638527</ele>
        <time>2026-04-14T01:11:53.218Z</time>
      </trkpt>
      <trkpt lat="52.229796" lon="5.847373">
        <ele>96.657231</ele>
        <time>2026-04-14T01:11:54.896Z</time>
      </trkpt>
      <trkpt lat="52.229867" lon="5.847486">
        <ele>96.682505</ele>
        <time>2026-04-14T01:11:57.227Z</time>
      </trkpt>
      <trkpt lat="52.229753" lon="5.847761">
        <ele>96.734348</ele>
        <time>2026-04-14T01:12:02.346Z</time>
      </trkpt>
      <trkpt lat="52.229579" lon="5.847996">
        <ele>96.922800</ele>
        <time>2026-04-14T01:12:08.319Z</time>
      </trkpt>
      <trkpt lat="52.229459" lon="5.848109">
        <ele>97.237453</ele>
        <time>2026-04-14T01:12:12.176Z</time>
      </trkpt>
      <trkpt lat="52.229312" lon="5.848206">
        <ele>97.597587</ele>
        <time>2026-04-14T01:12:16.831Z</time>
      </trkpt>
      <trkpt lat="52.228864" lon="5.848391">
        <ele>98.647212</ele>
        <time>2026-04-14T01:12:31.276Z</time>
      </trkpt>
      <trkpt lat="52.228781" lon="5.848428">
        <ele>98.842638</ele>
        <time>2026-04-14T01:12:34.026Z</time>
      </trkpt>
      <trkpt lat="52.228693" lon="5.848472">
        <ele>99.051683</ele>
        <time>2026-04-14T01:12:36.965Z</time>
      </trkpt>
      <trkpt lat="52.228586" lon="5.848507">
        <ele>99.299551</ele>
        <time>2026-04-14T01:12:40.499Z</time>
      </trkpt>
      <trkpt lat="52.228545" lon="5.848523">
        <ele>99.395301</ele>
        <time>2026-04-14T01:12:41.851Z</time>
      </trkpt>
      <trkpt lat="52.228046" lon="5.848630">
        <ele>100.538456</ele>
        <time>2026-04-14T01:12:58.076Z</time>
      </trkpt>
      <trkpt lat="52.227040" lon="5.848379">
        <ele>101.266248</ele>
        <time>2026-04-14T01:13:26.189Z</time>
      </trkpt>
      <trkpt lat="52.226570" lon="5.848124">
        <ele>101.495555</ele>
        <time>2026-04-14T01:13:36.067Z</time>
      </trkpt>
      <trkpt lat="52.224886" lon="5.846829">
        <ele>99.023815</ele>
        <time>2026-04-14T01:14:06.477Z</time>
      </trkpt>
      <trkpt lat="52.223823" lon="5.845932">
        <ele>97.457131</ele>
        <time>2026-04-14T01:14:25.434Z</time>
      </trkpt>
      <trkpt lat="52.223451" lon="5.845807">
        <ele>97.051903</ele>
        <time>2026-04-14T01:14:32.362Z</time>
      </trkpt>
      <trkpt lat="52.222743" lon="5.845698">
        <ele>96.141650</ele>
        <time>2026-04-14T01:14:47.547Z</time>
      </trkpt>
      <trkpt lat="52.222280" lon="5.845463">
        <ele>95.032711</ele>
        <time>2026-04-14T01:15:03.731Z</time>
      </trkpt>
      <trkpt lat="52.222098" lon="5.845296">
        <ele>94.555202</ele>
        <time>2026-04-14T01:15:09.988Z</time>
      </trkpt>
      <trkpt lat="52.221871" lon="5.844973">
        <ele>93.866475</ele>
        <time>2026-04-14T01:15:18.302Z</time>
      </trkpt>
      <trkpt lat="52.221724" lon="5.844592">
        <ele>93.235605</ele>
        <time>2026-04-14T01:15:25.371Z</time>
      </trkpt>
      <trkpt lat="52.221562" lon="5.843988">
        <ele>92.311497</ele>
        <time>2026-04-14T01:15:35.083Z</time>
      </trkpt>
      <trkpt lat="52.221232" lon="5.843141">
        <ele>88.056001</ele>
        <time>2026-04-14T01:15:48.987Z</time>
      </trkpt>
      <trkpt lat="52.220764" lon="5.842392">
        <ele>83.520343</ele>
        <time>2026-04-14T01:16:03.482Z</time>
      </trkpt>
      <trkpt lat="52.220632" lon="5.842236">
        <ele>82.392581</ele>
        <time>2026-04-14T01:16:07.118Z</time>
      </trkpt>
      <trkpt lat="52.220280" lon="5.842063">
        <ele>79.854679</ele>
        <time>2026-04-14T01:16:15.411Z</time>
      </trkpt>
      <trkpt lat="52.216800" lon="5.841978">
        <ele>66.317622</ele>
        <time>2026-04-14T01:17:05.992Z</time>
      </trkpt>
      <trkpt lat="52.216789" lon="5.842562">
        <ele>65.803897</ele>
        <time>2026-04-14T01:17:11.971Z</time>
      </trkpt>
      <trkpt lat="52.216764" lon="5.842705">
        <ele>65.758430</ele>
        <time>2026-04-14T01:17:13.546Z</time>
      </trkpt>
      <trkpt lat="52.216692" lon="5.842815">
        <ele>65.709216</ele>
        <time>2026-04-14T01:17:15.290Z</time>
      </trkpt>
      <trkpt lat="52.216683" lon="5.842898">
        <ele>65.683445</ele>
        <time>2026-04-14T01:17:16.209Z</time>
      </trkpt>
      <trkpt lat="52.216714" lon="5.843391">
        <ele>65.531923</ele>
        <time>2026-04-14T01:17:21.885Z</time>
      </trkpt>
      <trkpt lat="52.216709" lon="5.843788">
        <ele>65.410518</ele>
        <time>2026-04-14T01:17:26.815Z</time>
      </trkpt>
      <trkpt lat="52.216640" lon="5.845282">
        <ele>65.084274</ele>
        <time>2026-04-14T01:18:02.430Z</time>
      </trkpt>
      <trkpt lat="52.216651" lon="5.846122">
        <ele>65.276816</ele>
        <time>2026-04-14T01:18:22.643Z</time>
      </trkpt>
      <trkpt lat="52.216632" lon="5.846646">
        <ele>65.397108</ele>
        <time>2026-04-14T01:18:35.067Z</time>
      </trkpt>
      <trkpt lat="52.216420" lon="5.849289">
        <ele>66.903142</ele>
        <time>2026-04-14T01:19:38.294Z</time>
      </trkpt>
      <trkpt lat="52.216435" lon="5.850108">
        <ele>67.637711</ele>
        <time>2026-04-14T01:20:00.570Z</time>
      </trkpt>
      <trkpt lat="52.216416" lon="5.850278">
        <ele>67.792632</ele>
        <time>2026-04-14T01:20:05.648Z</time>
      </trkpt>
      <trkpt lat="52.216248" lon="5.850842">
        <ele>68.377329</ele>
        <time>2026-04-14T01:20:24.819Z</time>
      </trkpt>
      <trkpt lat="52.216172" lon="5.851348">
        <ele>69.312539</ele>
        <time>2026-04-14T01:20:41.268Z</time>
      </trkpt>
      <trkpt lat="52.216150" lon="5.852126">
        <ele>70.710606</ele>
        <time>2026-04-14T01:21:06.358Z</time>
      </trkpt>
      <trkpt lat="52.216239" lon="5.854156">
        <ele>73.981706</ele>
        <time>2026-04-14T01:22:09.115Z</time>
      </trkpt>
      <trkpt lat="52.216296" lon="5.854380">
        <ele>74.198610</ele>
        <time>2026-04-14T01:22:15.773Z</time>
      </trkpt>
      <trkpt lat="52.216352" lon="5.854500">
        <ele>74.333505</ele>
        <time>2026-04-14T01:22:19.856Z</time>
      </trkpt>
      <trkpt lat="52.216514" lon="5.854680">
        <ele>74.619548</ele>
        <time>2026-04-14T01:22:28.376Z</time>
      </trkpt>
      <trkpt lat="52.216641" lon="5.855918">
        <ele>75.742049</ele>
        <time>2026-04-14T01:23:00.425Z</time>
      </trkpt>
      <trkpt lat="52.216671" lon="5.856440">
        <ele>76.210899</ele>
        <time>2026-04-14T01:23:13.507Z</time>
      </trkpt>
      <trkpt lat="52.216762" lon="5.856895">
        <ele>76.352213</ele>
        <time>2026-04-14T01:23:25.260Z</time>
      </trkpt>
      <trkpt lat="52.216946" lon="5.858077">
        <ele>76.682781</ele>
        <time>2026-04-14T01:23:54.912Z</time>
      </trkpt>
      <trkpt lat="52.216965" lon="5.858327">
        <ele>76.751065</ele>
        <time>2026-04-14T01:24:00.998Z</time>
      </trkpt>
      <trkpt lat="52.216201" lon="5.860826">
        <ele>76.475824</ele>
        <time>2026-04-14T01:25:04.966Z</time>
      </trkpt>
      <trkpt lat="52.216107" lon="5.860946">
        <ele>76.416209</ele>
        <time>2026-04-14T01:25:09.165Z</time>
      </trkpt>
      <trkpt lat="52.215962" lon="5.861054">
        <ele>76.336589</ele>
        <time>2026-04-14T01:25:14.713Z</time>
      </trkpt>
      <trkpt lat="52.214385" lon="5.861667">
        <ele>73.650321</ele>
        <time>2026-04-14T01:26:08.374Z</time>
      </trkpt>
      <trkpt lat="52.213720" lon="5.862066">
        <ele>72.006136</ele>
        <time>2026-04-14T01:26:30.654Z</time>
      </trkpt>
      <trkpt lat="52.213065" lon="5.862324">
        <ele>69.481433</ele>
        <time>2026-04-14T01:26:51.186Z</time>
      </trkpt>
      <trkpt lat="52.212751" lon="5.862510">
        <ele>68.229799</ele>
        <time>2026-04-14T01:27:01.165Z</time>
      </trkpt>
      <trkpt lat="52.212499" lon="5.862809">
        <ele>67.062411</ele>
        <time>2026-04-14T01:27:10.350Z</time>
      </trkpt>
      <trkpt lat="52.211996" lon="5.863888">
        <ele>64.170411</ele>
        <time>2026-04-14T01:27:34.714Z</time>
      </trkpt>
      <trkpt lat="52.211682" lon="5.864879">
        <ele>61.938090</ele>
        <time>2026-04-14T01:27:55.449Z</time>
      </trkpt>
      <trkpt lat="52.211503" lon="5.865301">
        <ele>60.911126</ele>
        <time>2026-04-14T01:28:04.336Z</time>
      </trkpt>
      <trkpt lat="52.211490" lon="5.865426">
        <ele>60.657433</ele>
        <time>2026-04-14T01:28:06.559Z</time>
      </trkpt>
      <trkpt lat="52.211593" lon="5.866364">
        <ele>59.350840</ele>
        <time>2026-04-14T01:28:25.685Z</time>
      </trkpt>
      <trkpt lat="52.211598" lon="5.866588">
        <ele>59.160351</ele>
        <time>2026-04-14T01:28:30.305Z</time>
      </trkpt>
      <trkpt lat="52.211421" lon="5.867312">
        <ele>58.497903</ele>
        <time>2026-04-14T01:28:46.573Z</time>
      </trkpt>
      <trkpt lat="52.211351" lon="5.867801">
        <ele>58.071142</ele>
        <time>2026-04-14T01:28:56.994Z</time>
      </trkpt>
      <trkpt lat="52.210990" lon="5.868510">
        <ele>57.294320</ele>
        <time>2026-04-14T01:29:06.604Z</time>
      </trkpt>
      <trkpt lat="52.210147" lon="5.869070">
        <ele>56.747794</ele>
        <time>2026-04-14T01:29:23.283Z</time>
      </trkpt>
      <trkpt lat="52.210025" lon="5.869325">
        <ele>56.628756</ele>
        <time>2026-04-14T01:29:26.968Z</time>
      </trkpt>
      <trkpt lat="52.209989" lon="5.869476">
        <ele>56.569139</ele>
        <time>2026-04-14T01:29:28.734Z</time>
      </trkpt>
      <trkpt lat="52.209992" lon="5.869568">
        <ele>56.535240</ele>
        <time>2026-04-14T01:29:29.788Z</time>
      </trkpt>
      <trkpt lat="52.209483" lon="5.868569">
        <ele>56.077641</ele>
        <time>2026-04-14T01:29:42.713Z</time>
      </trkpt>
      <trkpt lat="52.209124" lon="5.867732">
        <ele>55.749135</ele>
        <time>2026-04-14T01:29:52.355Z</time>
      </trkpt>
      <trkpt lat="52.209073" lon="5.867563">
        <ele>55.688562</ele>
        <time>2026-04-14T01:29:54.116Z</time>
      </trkpt>
      <trkpt lat="52.209040" lon="5.867340">
        <ele>55.614797</ele>
        <time>2026-04-14T01:29:56.274Z</time>
      </trkpt>
      <trkpt lat="52.209058" lon="5.866369">
        <ele>55.302437</ele>
        <time>2026-04-14T01:30:05.710Z</time>
      </trkpt>
      <trkpt lat="52.209035" lon="5.866086">
        <ele>55.273036</ele>
        <time>2026-04-14T01:30:08.558Z</time>
      </trkpt>
      <trkpt lat="52.208713" lon="5.865479">
        <ele>55.263114</ele>
        <time>2026-04-14T01:30:16.766Z</time>
      </trkpt>
      <trkpt lat="52.208583" lon="5.865064">
        <ele>55.257354</ele>
        <time>2026-04-14T01:30:21.700Z</time>
      </trkpt>
      <trkpt lat="52.208555" lon="5.864910">
        <ele>55.255369</ele>
        <time>2026-04-14T01:30:23.452Z</time>
      </trkpt>
      <trkpt lat="52.208529" lon="5.864493">
        <ele>55.250189</ele>
        <time>2026-04-14T01:30:28.088Z</time>
      </trkpt>
      <trkpt lat="52.208560" lon="5.863704">
        <ele>55.240419</ele>
        <time>2026-04-14T01:30:36.835Z</time>
      </trkpt>
      <trkpt lat="52.208533" lon="5.863339">
        <ele>55.157986</ele>
        <time>2026-04-14T01:30:40.809Z</time>
      </trkpt>
      <trkpt lat="52.208470" lon="5.863046">
        <ele>55.065752</ele>
        <time>2026-04-14T01:30:44.061Z</time>
      </trkpt>
      <trkpt lat="52.208387" lon="5.862800">
        <ele>54.982336</ele>
        <time>2026-04-14T01:30:46.939Z</time>
      </trkpt>
      <trkpt lat="52.208094" lon="5.862107">
        <ele>54.732245</ele>
        <time>2026-04-14T01:30:55.258Z</time>
      </trkpt>
      <trkpt lat="52.207436" lon="5.861161">
        <ele>54.262598</ele>
        <time>2026-04-14T01:31:08.434Z</time>
      </trkpt>
      <trkpt lat="52.206776" lon="5.860066">
        <ele>53.468794</ele>
        <time>2026-04-14T01:31:22.177Z</time>
      </trkpt>
      <trkpt lat="52.206612" lon="5.859894">
        <ele>53.304375</ele>
        <time>2026-04-14T01:31:25.093Z</time>
      </trkpt>
      <trkpt lat="52.206375" lon="5.859743">
        <ele>53.089796</ele>
        <time>2026-04-14T01:31:29.005Z</time>
      </trkpt>
      <trkpt lat="52.205615" lon="5.859410">
        <ele>52.843976</ele>
        <time>2026-04-14T01:31:42.048Z</time>
      </trkpt>
      <trkpt lat="52.205385" lon="5.859268">
        <ele>52.840814</ele>
        <time>2026-04-14T01:31:46.564Z</time>
      </trkpt>
      <trkpt lat="52.204778" lon="5.858666">
        <ele>52.831681</ele>
        <time>2026-04-14T01:31:59.574Z</time>
      </trkpt>
      <trkpt lat="52.204486" lon="5.858304">
        <ele>52.820852</ele>
        <time>2026-04-14T01:32:05.874Z</time>
      </trkpt>
      <trkpt lat="52.204325" lon="5.858181">
        <ele>52.778940</ele>
        <time>2026-04-14T01:32:08.818Z</time>
      </trkpt>
      <trkpt lat="52.203793" lon="5.857950">
        <ele>52.649149</ele>
        <time>2026-04-14T01:32:17.734Z</time>
      </trkpt>
      <trkpt lat="52.203446" lon="5.857749">
        <ele>52.562337</ele>
        <time>2026-04-14T01:32:23.744Z</time>
      </trkpt>
      <trkpt lat="52.203238" lon="5.857551">
        <ele>52.505564</ele>
        <time>2026-04-14T01:32:27.778Z</time>
      </trkpt>
      <trkpt lat="52.203113" lon="5.857356">
        <ele>52.464791</ele>
        <time>2026-04-14T01:32:30.693Z</time>
      </trkpt>
      <trkpt lat="52.203013" lon="5.857114">
        <ele>52.422619</ele>
        <time>2026-04-14T01:32:33.651Z</time>
      </trkpt>
      <trkpt lat="52.202658" lon="5.855938">
        <ele>51.704914</ele>
        <time>2026-04-14T01:32:46.316Z</time>
      </trkpt>
      <trkpt lat="52.201456" lon="5.856794">
        <ele>50.493365</ele>
        <time>2026-04-14T01:33:23.741Z</time>
      </trkpt>
      <trkpt lat="52.201320" lon="5.856748">
        <ele>50.393399</ele>
        <time>2026-04-14T01:33:27.675Z</time>
      </trkpt>
      <trkpt lat="52.201245" lon="5.856839">
        <ele>50.326129</ele>
        <time>2026-04-14T01:33:30.366Z</time>
      </trkpt>
      <trkpt lat="52.200921" lon="5.858434">
        <ele>49.584898</ele>
        <time>2026-04-14T01:34:01.311Z</time>
      </trkpt>
      <trkpt lat="52.200843" lon="5.858795">
        <ele>49.416045</ele>
        <time>2026-04-14T01:34:08.723Z</time>
      </trkpt>
      <trkpt lat="52.200797" lon="5.859245">
        <ele>49.359423</ele>
        <time>2026-04-14T01:34:17.596Z</time>
      </trkpt>
      <trkpt lat="52.200600" lon="5.859696">
        <ele>49.346711</ele>
        <time>2026-04-14T01:34:28.313Z</time>
      </trkpt>
      <trkpt lat="52.199661" lon="5.862742">
        <ele>48.988722</ele>
        <time>2026-04-14T01:35:34.887Z</time>
      </trkpt>
      <trkpt lat="52.199498" lon="5.863164">
        <ele>48.875767</ele>
        <time>2026-04-14T01:35:44.552Z</time>
      </trkpt>
      <trkpt lat="52.199427" lon="5.863912">
        <ele>48.704364</ele>
        <time>2026-04-14T01:35:58.498Z</time>
      </trkpt>
      <trkpt lat="52.199343" lon="5.864146">
        <ele>48.642955</ele>
        <time>2026-04-14T01:36:03.320Z</time>
      </trkpt>
      <trkpt lat="52.199312" lon="5.864751">
        <ele>48.109297</ele>
        <time>2026-04-14T01:36:13.907Z</time>
      </trkpt>
      <trkpt lat="52.199164" lon="5.865157">
        <ele>47.676313</ele>
        <time>2026-04-14T01:36:22.054Z</time>
      </trkpt>
      <trkpt lat="52.199051" lon="5.865487">
        <ele>47.329830</ele>
        <time>2026-04-14T01:36:28.462Z</time>
      </trkpt>
      <trkpt lat="52.199042" lon="5.865602">
        <ele>47.223565</ele>
        <time>2026-04-14T01:36:30.416Z</time>
      </trkpt>
      <trkpt lat="52.199005" lon="5.865667">
        <ele>47.142254</ele>
        <time>2026-04-14T01:36:31.907Z</time>
      </trkpt>
      <trkpt lat="52.198815" lon="5.865750">
        <ele>46.848106</ele>
        <time>2026-04-14T01:36:37.289Z</time>
      </trkpt>
      <trkpt lat="52.198713" lon="5.865887">
        <ele>46.650528</ele>
        <time>2026-04-14T01:36:40.919Z</time>
      </trkpt>
      <trkpt lat="52.198064" lon="5.867466">
        <ele>45.353824</ele>
        <time>2026-04-14T01:37:14.215Z</time>
      </trkpt>
      <trkpt lat="52.195841" lon="5.872404">
        <ele>43.275386</ele>
        <time>2026-04-14T01:39:08.075Z</time>
      </trkpt>
      <trkpt lat="52.195545" lon="5.873169">
        <ele>43.159076</ele>
        <time>2026-04-14T01:39:25.951Z</time>
      </trkpt>
      <trkpt lat="52.194986" lon="5.874805">
        <ele>42.852942</ele>
        <time>2026-04-14T01:40:03.057Z</time>
      </trkpt>
      <trkpt lat="52.194570" lon="5.876243">
        <ele>42.564282</ele>
        <time>2026-04-14T01:40:32.744Z</time>
      </trkpt>
      <trkpt lat="52.194265" lon="5.877491">
        <ele>41.827710</ele>
        <time>2026-04-14T01:40:56.825Z</time>
      </trkpt>
      <trkpt lat="52.194115" lon="5.878216">
        <ele>41.382982</ele>
        <time>2026-04-14T01:41:10.336Z</time>
      </trkpt>
      <trkpt lat="52.193716" lon="5.880492">
        <ele>40.627325</ele>
        <time>2026-04-14T01:41:53.366Z</time>
      </trkpt>
      <trkpt lat="52.193667" lon="5.880337">
        <ele>40.601553</ele>
        <time>2026-04-14T01:41:56.767Z</time>
      </trkpt>
      <trkpt lat="52.193674" lon="5.880193">
        <ele>40.580207</ele>
        <time>2026-04-14T01:41:59.629Z</time>
      </trkpt>
      <trkpt lat="52.193749" lon="5.879860">
        <ele>40.527782</ele>
        <time>2026-04-14T01:42:06.842Z</time>
      </trkpt>
      <trkpt lat="52.193863" lon="5.879108">
        <ele>40.413307</ele>
        <time>2026-04-14T01:42:22.902Z</time>
      </trkpt>
      <trkpt lat="52.193913" lon="5.878998">
        <ele>40.399452</ele>
        <time>2026-04-14T01:42:25.753Z</time>
      </trkpt>
      <trkpt lat="52.193952" lon="5.878649">
        <ele>40.374660</ele>
        <time>2026-04-14T01:42:33.034Z</time>
      </trkpt>
      <trkpt lat="52.194078" lon="5.878026">
        <ele>40.328813</ele>
        <time>2026-04-14T01:42:46.211Z</time>
      </trkpt>
      <trkpt lat="52.193952" lon="5.878649">
        <ele>40.282967</ele>
        <time>2026-04-14T01:42:58.737Z</time>
      </trkpt>
      <trkpt lat="52.193913" lon="5.878998">
        <ele>40.258175</ele>
        <time>2026-04-14T01:43:05.363Z</time>
      </trkpt>
      <trkpt lat="52.193863" lon="5.879108">
        <ele>40.248605</ele>
        <time>2026-04-14T01:43:07.901Z</time>
      </trkpt>
      <trkpt lat="52.193749" lon="5.879860">
        <ele>40.276584</ele>
        <time>2026-04-14T01:43:22.125Z</time>
      </trkpt>
      <trkpt lat="52.193674" lon="5.880193">
        <ele>40.611980</ele>
        <time>2026-04-14T01:43:28.705Z</time>
      </trkpt>
      <trkpt lat="52.193667" lon="5.880337">
        <ele>40.748546</ele>
        <time>2026-04-14T01:43:31.430Z</time>
      </trkpt>
      <trkpt lat="52.193716" lon="5.880492">
        <ele>40.913422</ele>
        <time>2026-04-14T01:43:34.755Z</time>
      </trkpt>
      <trkpt lat="52.193601" lon="5.881027">
        <ele>41.449409</ele>
        <time>2026-04-14T01:43:41.990Z</time>
      </trkpt>
      <trkpt lat="52.193636" lon="5.881083">
        <ele>41.525018</ele>
        <time>2026-04-14T01:43:43.289Z</time>
      </trkpt>
      <trkpt lat="52.194190" lon="5.881960">
        <ele>42.715589</ele>
        <time>2026-04-14T01:44:09.308Z</time>
      </trkpt>
      <trkpt lat="52.194320" lon="5.882129">
        <ele>42.971958</ele>
        <time>2026-04-14T01:44:15.543Z</time>
      </trkpt>
      <trkpt lat="52.195088" lon="5.882868">
        <ele>46.508311</ele>
        <time>2026-04-14T01:44:53.782Z</time>
      </trkpt>
      <trkpt lat="52.195107" lon="5.882827">
        <ele>46.633387</ele>
        <time>2026-04-14T01:44:55.247Z</time>
      </trkpt>
      <trkpt lat="52.196129" lon="5.882150">
        <ele>50.106269</ele>
        <time>2026-04-14T01:45:36.220Z</time>
      </trkpt>
      <trkpt lat="52.196078" lon="5.880109">
        <ele>50.060233</ele>
        <time>2026-04-14T01:46:13.914Z</time>
      </trkpt>
      <trkpt lat="52.195937" lon="5.877624">
        <ele>48.989077</ele>
        <time>2026-04-14T01:46:55.919Z</time>
      </trkpt>
      <trkpt lat="52.195979" lon="5.877337">
        <ele>48.830638</ele>
        <time>2026-04-14T01:46:59.276Z</time>
      </trkpt>
      <trkpt lat="52.196056" lon="5.877136">
        <ele>48.703364</ele>
        <time>2026-04-14T01:47:02.212Z</time>
      </trkpt>
      <trkpt lat="52.196154" lon="5.876977">
        <ele>48.582288</ele>
        <time>2026-04-14T01:47:05.233Z</time>
      </trkpt>
      <trkpt lat="52.196307" lon="5.876855">
        <ele>48.558052</ele>
        <time>2026-04-14T01:47:09.225Z</time>
      </trkpt>
      <trkpt lat="52.198377" lon="5.875984">
        <ele>51.847042</ele>
        <time>2026-04-14T01:48:11.966Z</time>
      </trkpt>
      <trkpt lat="52.205103" lon="5.872961">
        <ele>51.696801</ele>
        <time>2026-04-14T01:50:21.256Z</time>
      </trkpt>
      <trkpt lat="52.208188" lon="5.871563">
        <ele>55.391929</ele>
        <time>2026-04-14T01:51:39.259Z</time>
      </trkpt>
      <trkpt lat="52.209039" lon="5.871217">
        <ele>57.389450</ele>
        <time>2026-04-14T01:52:05.728Z</time>
      </trkpt>
      <trkpt lat="52.209467" lon="5.871101">
        <ele>58.511506</ele>
        <time>2026-04-14T01:52:19.576Z</time>
      </trkpt>
      <trkpt lat="52.211090" lon="5.870724">
        <ele>63.576817</ele>
        <time>2026-04-14T01:53:11.486Z</time>
      </trkpt>
      <trkpt lat="52.211310" lon="5.870730">
        <ele>64.342796</ele>
        <time>2026-04-14T01:53:18.541Z</time>
      </trkpt>
      <trkpt lat="52.211453" lon="5.870773">
        <ele>64.848992</ele>
        <time>2026-04-14T01:53:23.349Z</time>
      </trkpt>
      <trkpt lat="52.212397" lon="5.871321">
        <ele>69.219120</ele>
        <time>2026-04-14T01:54:01.275Z</time>
      </trkpt>
      <trkpt lat="52.212609" lon="5.871491">
        <ele>70.465653</ele>
        <time>2026-04-14T01:54:11.469Z</time>
      </trkpt>
      <trkpt lat="52.212793" lon="5.871798">
        <ele>71.854294</ele>
        <time>2026-04-14T01:54:23.018Z</time>
      </trkpt>
      <trkpt lat="52.213290" lon="5.873040">
        <ele>76.464271</ele>
        <time>2026-04-14T01:55:01.898Z</time>
      </trkpt>
      <trkpt lat="52.213420" lon="5.873240">
        <ele>77.076212</ele>
        <time>2026-04-14T01:55:08.953Z</time>
      </trkpt>
      <trkpt lat="52.213773" lon="5.873515">
        <ele>78.416022</ele>
        <time>2026-04-14T01:55:23.454Z</time>
      </trkpt>
      <trkpt lat="52.213974" lon="5.873627">
        <ele>79.143525</ele>
        <time>2026-04-14T01:55:30.680Z</time>
      </trkpt>
      <trkpt lat="52.214696" lon="5.873808">
        <ele>81.645586</ele>
        <time>2026-04-14T01:55:51.871Z</time>
      </trkpt>
      <trkpt lat="52.214895" lon="5.873776">
        <ele>82.295111</ele>
        <time>2026-04-14T01:55:56.830Z</time>
      </trkpt>
      <trkpt lat="52.215165" lon="5.873656">
        <ele>82.582769</ele>
        <time>2026-04-14T01:56:03.328Z</time>
      </trkpt>
      <trkpt lat="52.215251" lon="5.873481">
        <ele>82.724063</ele>
        <time>2026-04-14T01:56:06.675Z</time>
      </trkpt>
      <trkpt lat="52.216398" lon="5.872967">
        <ele>83.946776</ele>
        <time>2026-04-14T01:56:31.099Z</time>
      </trkpt>
      <trkpt lat="52.216804" lon="5.872810">
        <ele>84.374475</ele>
        <time>2026-04-14T01:56:39.629Z</time>
      </trkpt>
      <trkpt lat="52.216845" lon="5.872828">
        <ele>84.417906</ele>
        <time>2026-04-14T01:56:40.524Z</time>
      </trkpt>
      <trkpt lat="52.216908" lon="5.872941">
        <ele>84.513659</ele>
        <time>2026-04-14T01:56:42.449Z</time>
      </trkpt>
      <trkpt lat="52.217399" lon="5.872917">
        <ele>85.016142</ele>
        <time>2026-04-14T01:56:52.744Z</time>
      </trkpt>
      <trkpt lat="52.217812" lon="5.872891">
        <ele>85.438927</ele>
        <time>2026-04-14T01:57:02.169Z</time>
      </trkpt>
      <trkpt lat="52.217897" lon="5.872903">
        <ele>85.526200</ele>
        <time>2026-04-14T01:57:04.128Z</time>
      </trkpt>
      <trkpt lat="52.218056" lon="5.872924">
        <ele>85.689378</ele>
        <time>2026-04-14T01:57:07.824Z</time>
      </trkpt>
      <trkpt lat="52.218185" lon="5.872962">
        <ele>85.823468</ele>
        <time>2026-04-14T01:57:10.816Z</time>
      </trkpt>
      <trkpt lat="52.218330" lon="5.873054">
        <ele>85.968761</ele>
        <time>2026-04-14T01:57:14.280Z</time>
      </trkpt>
      <trkpt lat="52.218419" lon="5.873198">
        <ele>85.968761</ele>
        <time>2026-04-14T01:57:17.048Z</time>
      </trkpt>
      <trkpt lat="52.218474" lon="5.873350">
        <ele>85.968761</ele>
        <time>2026-04-14T01:57:19.428Z</time>
      </trkpt>
      <trkpt lat="52.218551" lon="5.873800">
        <ele>85.968761</ele>
        <time>2026-04-14T01:57:25.547Z</time>
      </trkpt>
      <trkpt lat="52.218569" lon="5.874139">
        <ele>85.968761</ele>
        <time>2026-04-14T01:57:29.876Z</time>
      </trkpt>
      <trkpt lat="52.218607" lon="5.874834">
        <ele>85.968761</ele>
        <time>2026-04-14T01:57:38.534Z</time>
      </trkpt>
    </trkseg>
  </trk>
</gpx>